Observation data for Endee on 08/14/2019      Previous  Date  Next       Current Mesonet Observations  Soil Data  Daily Summary Page  Observations in Plain Language
KEN1 140500Z 13009KT 25/17 A3018 RMK A01 T02460170  RH  063%=      5-min Rain = 0
KEN1 140501Z 12009KT 25/17 A3018 RMK A01 T02450170  RH  063%=      5-min Rain = 0
KEN1 140502Z 12008KT 24/17 A3018 RMK A01 T02440171  RH  064%=      5-min Rain = 0
KEN1 140503Z 13008KT 24/17 A3018 RMK A01 T02430171  RH  064%=      5-min Rain = 0
KEN1 140504Z 13008KT 24/17 A3018 RMK A01 T02410171  RH  065%=      5-min Rain = 0
KEN1 140505Z 13008KT 24/17 A3018 RMK A01 T02410171  RH  065%=      5-min Rain = 0
KEN1 140506Z 13008KT 24/17 A3018 RMK A01 T02410171  RH  065%=      5-min Rain = 0
KEN1 140507Z 13008KT 24/17 A3018 RMK A01 T02400171  RH  065%=      5-min Rain = 0
KEN1 140508Z 13008KT 24/17 A3018 RMK A01 T02400171  RH  065%=      5-min Rain = 0
KEN1 140509Z 13008KT 24/17 A3018 RMK A01 T02400172  RH  066%=      5-min Rain = 0
KEN1 140510Z 13008KT 24/17 A3018 RMK A01 T02390171  RH  066%=      5-min Rain = 0
KEN1 140526Z 13008KT 24/17 A3018 RMK A01 T02360171  RH  067%=      5-min Rain = 0
KEN1 140527Z 14008KT 24/17 A3018 RMK A01 T02360172  RH  067%=      5-min Rain = 0
KEN1 140528Z 14008KT 24/17 A3018 RMK A01 T02360171  RH  067%=      5-min Rain = 0
KEN1 140529Z 14009KT 24/17 A3018 RMK A01 T02360171  RH  067%=      5-min Rain = 0
KEN1 140530Z 14008KT 24/17 A3018 RMK A01 T02360171  RH  067%=      5-min Rain = 0
KEN1 140531Z 14008KT 24/17 A3018 RMK A01 T02360170  RH  067%=      5-min Rain = 0
KEN1 140532Z 14007KT 24/17 A3018 RMK A01 T02360170  RH  067%=      5-min Rain = 0
KEN1 140533Z 13008KT 24/17 A3019 RMK A01 T02360171  RH  067%=      5-min Rain = 0
KEN1 140534Z 13008KT 24/17 A3019 RMK A01 T02360171  RH  067%=      5-min Rain = 0
KEN1 140535Z 13008KT 24/17 A3019 RMK A01 T02360171  RH  067%=      5-min Rain = 0
KEN1 140536Z 13008KT 24/17 A3019 RMK A01 T02360171  RH  067%=      5-min Rain = 0
KEN1 140537Z 12008KT 24/17 A3019 RMK A01 T02360171  RH  067%=      5-min Rain = 0
KEN1 140538Z 12008KT 24/17 A3019 RMK A01 T02360171  RH  067%=      5-min Rain = 0
KEN1 140539Z 12009KT 24/17 A3019 RMK A01 T02360170  RH  067%=      5-min Rain = 0
KEN1 140540Z 12010KT 24/17 A3019 RMK A01 T02360169  RH  066%=      5-min Rain = 0
KEN1 140541Z 13009KT 24/17 A3019 RMK A01 T02370169  RH  065%=      5-min Rain = 0
KEN1 140542Z 13010KT 24/17 A3019 RMK A01 T02380169  RH  065%=      5-min Rain = 0
KEN1 140543Z 13010KT 24/17 A3019 RMK A01 T02390168  RH  065%=      5-min Rain = 0
KEN1 140544Z 13010KT 24/17 A3019 RMK A01 T02400169  RH  064%=      5-min Rain = 0
KEN1 140545Z 13010KT 24/17 A3019 RMK A01 T02400169  RH  064%=      5-min Rain = 0
KEN1 140546Z 13010KT 24/17 A3019 RMK A01 T02400168  RH  064%=      5-min Rain = 0
KEN1 140547Z 14009KT 24/17 A3019 RMK A01 T02410169  RH  064%=      5-min Rain = 0
KEN1 140548Z 14008KT 24/17 A3019 RMK A01 T02410169  RH  064%=      5-min Rain = 0
KEN1 140549Z 15008KT 24/17 A3019 RMK A01 T02400170  RH  065%=      5-min Rain = 0
KEN1 140550Z 15008KT 24/17 A3019 RMK A01 T02400170  RH  065%=      5-min Rain = 0
KEN1 140551Z 15008KT 24/17 A3019 RMK A01 T02390170  RH  065%=      5-min Rain = 0
KEN1 140552Z 15008KT 24/17 A3019 RMK A01 T02380171  RH  066%=      5-min Rain = 0
KEN1 140553Z 15009KT 24/17 A3019 RMK A01 T02370170  RH  066%=      5-min Rain = 0
KEN1 140554Z 15009KT 24/17 A3019 RMK A01 T02360170  RH  066%=      5-min Rain = 0
KEN1 140555Z 15009KT 24/17 A3019 RMK A01 T02360170  RH  067%=      5-min Rain = 0
KEN1 140556Z 15010KT 24/17 A3019 RMK A01 T02350170  RH  067%=      5-min Rain = 0
KEN1 140557Z 15010KT 24/17 A3019 RMK A01 T02350170  RH  067%=      5-min Rain = 0
KEN1 140558Z 14010KT 24/17 A3019 RMK A01 T02350170  RH  067%=      5-min Rain = 0
KEN1 140559Z 14010KT 23/17 A3019 RMK A01 T02340170  RH  067%=      5-min Rain = 0
KEN1 140600Z 14010KT 23/17 A3019 RMK A01 T02340169  RH  067%=      5-min Rain = 0
KEN1 140601Z 14010KT 24/17 A3019 RMK A01 T02350169  RH  067%=      5-min Rain = 0
KEN1 140602Z 14011KT 24/17 A3019 RMK A01 T02350169  RH  066%=      5-min Rain = 0
KEN1 140603Z 14010KT 24/17 A3019 RMK A01 T02360169  RH  066%=      5-min Rain = 0
KEN1 140604Z 14009KT 24/17 A3019 RMK A01 T02370169  RH  066%=      5-min Rain = 0
KEN1 140605Z 14010KT 24/17 A3019 RMK A01 T02370170  RH  066%=      5-min Rain = 0
KEN1 140606Z 14010KT 24/17 A3019 RMK A01 T02360170  RH  066%=      5-min Rain = 0
KEN1 140607Z 14009KT 24/17 A3019 RMK A01 T02360170  RH  066%=      5-min Rain = 0
KEN1 140608Z 14009KT 24/17 A3019 RMK A01 T02360170  RH  067%=      5-min Rain = 0
KEN1 140609Z 14010KT 24/17 A3019 RMK A01 T02350170  RH  067%=      5-min Rain = 0
KEN1 140610Z 13010KT 24/17 A3019 RMK A01 T02350170  RH  067%=      5-min Rain = 0
KEN1 140611Z 13010KT 24/17 A3019 RMK A01 T02350169  RH  067%=      5-min Rain = 0
KEN1 140612Z 14010KT 24/17 A3019 RMK A01 T02360169  RH  066%=      5-min Rain = 0
KEN1 140613Z 14009KT 24/17 A3019 RMK A01 T02360169  RH  066%=      5-min Rain = 0
KEN1 140614Z 13010KT 24/17 A3019 RMK A01 T02370170  RH  066%=      5-min Rain = 0
KEN1 140615Z 13010KT 24/17 A3019 RMK A01 T02360169  RH  066%=      5-min Rain = 0
KEN1 140616Z 13010KT 24/17 A3019 RMK A01 T02360170  RH  066%=      5-min Rain = 0
KEN1 140617Z 13009KT 24/17 A3019 RMK A01 T02360170  RH  066%=      5-min Rain = 0
KEN1 140618Z 13009KT 24/17 A3019 RMK A01 T02360170  RH  066%=      5-min Rain = 0
KEN1 140619Z 13009KT 24/17 A3019 RMK A01 T02360170  RH  067%=      5-min Rain = 0
KEN1 140620Z 13009KT 24/17 A302 RMK A01 T02360170  RH  067%=      5-min Rain = 0
KEN1 140621Z 13008KT 24/17 A302 RMK A01 T02350170  RH  067%=      5-min Rain = 0
KEN1 140622Z 13009KT 24/17 A302 RMK A01 T02360171  RH  067%=      5-min Rain = 0
KEN1 140623Z 13009KT 24/17 A302 RMK A01 T02350170  RH  067%=      5-min Rain = 0
KEN1 140624Z 12008KT 24/17 A302 RMK A01 T02350171  RH  067%=      5-min Rain = 0
KEN1 140625Z 12009KT 24/17 A302 RMK A01 T02350170  RH  067%=      5-min Rain = 0
KEN1 140626Z 12008KT 24/17 A302 RMK A01 T02350171  RH  067%=      5-min Rain = 0
KEN1 140627Z 11007KT 24/17 A3021 RMK A01 T02350171  RH  067%=      5-min Rain = 0
KEN1 140628Z 11007KT 23/17 A3021 RMK A01 T02340171  RH  068%=      5-min Rain = 0
KEN1 140629Z 11007KT 23/17 A3021 RMK A01 T02330172  RH  068%=      5-min Rain = 0
KEN1 140630Z 12008KT 23/17 A3021 RMK A01 T02320172  RH  069%=      5-min Rain = 0
KEN1 140631Z 12010KT 23/17 A3021 RMK A01 T02320171  RH  068%=      5-min Rain = 0
KEN1 140632Z 11011KT 23/17 A3021 RMK A01 T02340170  RH  067%=      5-min Rain = 0
KEN1 140633Z 10009KT 24/17 A3021 RMK A01 T02360171  RH  067%=      5-min Rain = 0
KEN1 140634Z 09009KT 24/17 A3021 RMK A01 T02360171  RH  067%=      5-min Rain = 0
KEN1 140635Z 10011KT 24/17 A3022 RMK A01 T02360171  RH  067%=      5-min Rain = 0
KEN1 140636Z 11010KT 24/17 A3022 RMK A01 T02360171  RH  067%=      5-min Rain = 0
KEN1 140637Z 11010KT 24/17 A3022 RMK A01 T02370172  RH  067%=      5-min Rain = 0
KEN1 140638Z 11010KT 24/17 A3022 RMK A01 T02360170  RH  066%=      5-min Rain = 0
KEN1 140639Z 11014KT 24/17 A3022 RMK A01 T02370169  RH  066%=      5-min Rain = 0
KEN1 140640Z 11010KT 24/17 A3022 RMK A01 T02380169  RH  065%=      5-min Rain = 0
KEN1 140641Z 11011KT 24/17 A3022 RMK A01 T02380169  RH  065%=      5-min Rain = 0
KEN1 140642Z 11010KT 24/17 A3022 RMK A01 T02390170  RH  065%=      5-min Rain = 0
KEN1 140643Z 10010KT 24/17 A3022 RMK A01 T02380170  RH  066%=      5-min Rain = 0
KEN1 140644Z 11010KT 24/17 A3022 RMK A01 T02380171  RH  066%=      5-min Rain = 0
KEN1 140645Z 11012KT 24/17 A3022 RMK A01 T02380172  RH  066%=      5-min Rain = 0
KEN1 140646Z 10011KT 24/17 A3022 RMK A01 T02390173  RH  066%=      5-min Rain = 0
KEN1 140647Z 11015KT 24/17 A3022 RMK A01 T02400173  RH  066%=      5-min Rain = 0
KEN1 140648Z 11016KT 24/17 A3022 RMK A01 T02410173  RH  066%=      5-min Rain = 0
KEN1 140649Z 11015KT 24/17 A3022 RMK A01 T02410173  RH  066%=      5-min Rain = 0
KEN1 140650Z 11017KT 24/17 A3022 RMK A01 T02410172  RH  065%=      5-min Rain = 0
KEN1 140651Z 10013KT 24/17 A3022 RMK A01 T02410173  RH  066%=      5-min Rain = 0
KEN1 140652Z 10017KT 24/17 A3022 RMK A01 T02410173  RH  066%=      5-min Rain = 0
KEN1 140653Z 10013KT 24/17 A3022 RMK A01 T02400173  RH  066%=      5-min Rain = 0
KEN1 140654Z 10014KT 24/17 A3022 RMK A01 T02400173  RH  066%=      5-min Rain = 0
KEN1 140655Z 10017KT 24/17 A3022 RMK A01 T02390173  RH  066%=      5-min Rain = 0
KEN1 140656Z 10013KT 24/17 A3022 RMK A01 T02380172  RH  066%=      5-min Rain = 0
KEN1 140657Z 10013KT 24/17 A3022 RMK A01 T02380173  RH  067%=      5-min Rain = 0
KEN1 140658Z 10015KT 24/17 A3022 RMK A01 T02380173  RH  067%=      5-min Rain = 0
KEN1 140659Z 10015KT 24/17 A3022 RMK A01 T02370172  RH  067%=      5-min Rain = 0
KEN1 140700Z 10013KT 24/17 A3022 RMK A01 T02370172  RH  067%=      5-min Rain = 0
KEN1 140701Z 10013KT 24/17 A3022 RMK A01 T02360172  RH  067%=      5-min Rain = 0
KEN1 140702Z 11014KT 24/17 A3022 RMK A01 T02360173  RH  067%=      5-min Rain = 0
KEN1 140703Z 10011KT 24/17 A3022 RMK A01 T02360172  RH  067%=      5-min Rain = 0
KEN1 140704Z 10012KT 24/17 A3021 RMK A01 T02350172  RH  068%=      5-min Rain = 0
KEN1 140705Z 10014KT 24/17 A3021 RMK A01 T02350173  RH  068%=      5-min Rain = 0
KEN1 140706Z 11013KT 24/17 A3021 RMK A01 T02350173  RH  068%=      5-min Rain = 0
KEN1 140707Z 11014KT 24/17 A3021 RMK A01 T02350173  RH  068%=      5-min Rain = 0
KEN1 140708Z 11016KT 24/17 A3021 RMK A01 T02360173  RH  068%=      5-min Rain = 0
KEN1 140709Z 11014KT 24/17 A3021 RMK A01 T02360173  RH  068%=      5-min Rain = 0
KEN1 140710Z 10015KT 24/17 A3021 RMK A01 T02360174  RH  068%=      5-min Rain = 0
KEN1 140711Z 10015KT 24/17 A3021 RMK A01 T02360174  RH  068%=      5-min Rain = 0
KEN1 140712Z 10012KT 24/17 A3021 RMK A01 T02360174  RH  068%=      5-min Rain = 0
KEN1 140713Z 09012KT 24/17 A3021 RMK A01 T02350174  RH  069%=      5-min Rain = 0
KEN1 140714Z 10015KT 23/18 A3021 RMK A01 T02340175  RH  069%=      5-min Rain = 0
KEN1 140715Z 10017KT 23/18 A3021 RMK A01 T02340175  RH  069%=      5-min Rain = 0
KEN1 140716Z 10015G21KT 23/18 A3022 RMK A01 T02340175  RH  069%=      5-min Rain = 0
KEN1 140717Z 09016KT 23/18 A3022 RMK A01 T02330175  RH  070%=      5-min Rain = 0
KEN1 140718Z 10017KT 23/18 A3022 RMK A01 T02330175  RH  070%=      5-min Rain = 0
KEN1 140719Z 10016KT 23/18 A3021 RMK A01 T02330175  RH  070%=      5-min Rain = 0
KEN1 140720Z 10014KT 23/18 A3021 RMK A01 T02320175  RH  070%=      5-min Rain = 0
KEN1 140721Z 10018KT 23/18 A3021 RMK A01 T02310175  RH  071%=      5-min Rain = 0
KEN1 140722Z 10015KT 23/18 A3021 RMK A01 T02310175  RH  071%=      5-min Rain = 0
KEN1 140723Z 10015KT 23/18 A3021 RMK A01 T02310175  RH  071%=      5-min Rain = 0
KEN1 140724Z 10014KT 23/18 A3021 RMK A01 T02300176  RH  071%=      5-min Rain = 0
KEN1 140725Z 10015KT 23/18 A3021 RMK A01 T02300175  RH  071%=      5-min Rain = 0
KEN1 140726Z 10014KT 23/18 A3021 RMK A01 T02300175  RH  071%=      5-min Rain = 0
KEN1 140727Z 10016KT 23/18 A3021 RMK A01 T02300176  RH  072%=      5-min Rain = 0
KEN1 140728Z 10015KT 23/18 A302 RMK A01 T02290176  RH  072%=      5-min Rain = 0
KEN1 140729Z 11015KT 23/18 A302 RMK A01 T02290176  RH  072%=      5-min Rain = 0
KEN1 140730Z 11016KT 23/18 A302 RMK A01 T02290175  RH  072%=      5-min Rain = 0
KEN1 140731Z 10014KT 23/18 A3021 RMK A01 T02290175  RH  072%=      5-min Rain = 0
KEN1 140732Z 10013KT 23/18 A302 RMK A01 T02280175  RH  072%=      5-min Rain = 0
KEN1 140733Z 10015KT 23/18 A302 RMK A01 T02280175  RH  072%=      5-min Rain = 0
KEN1 140734Z 10014KT 23/18 A302 RMK A01 T02280175  RH  072%=      5-min Rain = 0
KEN1 140735Z 11013KT 23/18 A302 RMK A01 T02280175  RH  072%=      5-min Rain = 0
KEN1 140736Z 11011KT 23/18 A302 RMK A01 T02280175  RH  072%=      5-min Rain = 0
KEN1 140737Z 12011KT 23/18 A302 RMK A01 T02280175  RH  072%=      5-min Rain = 0
KEN1 140738Z 11012KT 23/18 A302 RMK A01 T02270176  RH  073%=      5-min Rain = 0
KEN1 140739Z 11012KT 23/18 A302 RMK A01 T02270175  RH  073%=      5-min Rain = 0
KEN1 140740Z 11013KT 23/18 A302 RMK A01 T02260175  RH  073%=      5-min Rain = 0
KEN1 140741Z 11014KT 23/18 A302 RMK A01 T02260175  RH  073%=      5-min Rain = 0
KEN1 140742Z 12015KT 23/17 A302 RMK A01 T02260174  RH  072%=      5-min Rain = 0
KEN1 140743Z 11012KT 23/18 A302 RMK A01 T02270175  RH  072%=      5-min Rain = 0
KEN1 140744Z 11012KT 23/18 A302 RMK A01 T02270175  RH  073%=      5-min Rain = 0
KEN1 140745Z 11011KT 23/18 A302 RMK A01 T02270175  RH  073%=      5-min Rain = 0
KEN1 140746Z 11015KT 23/18 A302 RMK A01 T02260175  RH  073%=      5-min Rain = 0
KEN1 140747Z 11014KT 23/18 A302 RMK A01 T02260175  RH  073%=      5-min Rain = 0
KEN1 140748Z 11011G17KT 23/18 A302 RMK A01 T02260175  RH  073%=      5-min Rain = 0
KEN1 140749Z 11015KT 23/18 A302 RMK A01 T02250175  RH  073%=      5-min Rain = 0
KEN1 140750Z 11014KT 23/17 A302 RMK A01 T02250174  RH  073%=      5-min Rain = 0
KEN1 140751Z 11013KT 23/17 A302 RMK A01 T02250174  RH  073%=      5-min Rain = 0
KEN1 140752Z 12014KT 23/18 A302 RMK A01 T02250175  RH  073%=      5-min Rain = 0
KEN1 140753Z 12014KT 23/17 A302 RMK A01 T02250174  RH  073%=      5-min Rain = 0
KEN1 140754Z 12013KT 23/17 A302 RMK A01 T02250174  RH  073%=      5-min Rain = 0
KEN1 140755Z 12013KT 23/17 A302 RMK A01 T02250174  RH  073%=      5-min Rain = 0
KEN1 140756Z 12012KT 23/17 A302 RMK A01 T02250174  RH  073%=      5-min Rain = 0
KEN1 140757Z 12014KT 23/18 A302 RMK A01 T02250175  RH  073%=      5-min Rain = 0
KEN1 140758Z 12014KT 23/17 A302 RMK A01 T02250174  RH  073%=      5-min Rain = 0
KEN1 140759Z 12014KT 23/17 A302 RMK A01 T02260174  RH  073%=      5-min Rain = 0
KEN1 140800Z 12013KT 23/17 A302 RMK A01 T02250174  RH  073%=      5-min Rain = 0
KEN1 140801Z 12013KT 23/17 A302 RMK A01 T02250174  RH  073%=      5-min Rain = 0
KEN1 140802Z 12012KT 23/17 A302 RMK A01 T02250174  RH  073%=      5-min Rain = 0
KEN1 140803Z 12012KT 23/17 A302 RMK A01 T02250174  RH  073%=      5-min Rain = 0
KEN1 140804Z 12012KT 23/17 A302 RMK A01 T02250174  RH  073%=      5-min Rain = 0
KEN1 140805Z 12011KT 23/17 A302 RMK A01 T02250174  RH  073%=      5-min Rain = 0
KEN1 140806Z 12011KT 23/17 A302 RMK A01 T02250174  RH  073%=      5-min Rain = 0
KEN1 140807Z 12010KT 23/18 A302 RMK A01 T02250175  RH  073%=      5-min Rain = 0
KEN1 140808Z 12011KT 22/18 A302 RMK A01 T02240175  RH  073%=      5-min Rain = 0
KEN1 140809Z 12012KT 22/17 A302 RMK A01 T02240174  RH  073%=      5-min Rain = 0
KEN1 140810Z 12009KT 22/17 A302 RMK A01 T02240173  RH  073%=      5-min Rain = 0
KEN1 140811Z 12010KT 22/17 A302 RMK A01 T02240174  RH  073%=      5-min Rain = 0
KEN1 140812Z 12011KT 22/17 A302 RMK A01 T02240173  RH  073%=      5-min Rain = 0
KEN1 140813Z 13011KT 22/17 A302 RMK A01 T02240173  RH  073%=      5-min Rain = 0
KEN1 140814Z 13010KT 22/17 A302 RMK A01 T02240173  RH  073%=      5-min Rain = 0
KEN1 140815Z 13010KT 22/17 A302 RMK A01 T02240173  RH  073%=      5-min Rain = 0
KEN1 140816Z 13009KT 22/17 A302 RMK A01 T02240173  RH  073%=      5-min Rain = 0
KEN1 140817Z 13010KT 22/17 A302 RMK A01 T02230173  RH  073%=      5-min Rain = 0
KEN1 140818Z 13009KT 22/17 A302 RMK A01 T02230173  RH  073%=      5-min Rain = 0
KEN1 140819Z 13010KT 22/17 A302 RMK A01 T02230173  RH  074%=      5-min Rain = 0
KEN1 140820Z 13010KT 22/17 A302 RMK A01 T02220173  RH  074%=      5-min Rain = 0
KEN1 140821Z 13010KT 22/17 A302 RMK A01 T02220173  RH  074%=      5-min Rain = 0
KEN1 140822Z 13011KT 22/17 A302 RMK A01 T02220173  RH  073%=      5-min Rain = 0
KEN1 140823Z 13009KT 22/17 A302 RMK A01 T02220172  RH  073%=      5-min Rain = 0
KEN1 140824Z 13009KT 22/17 A302 RMK A01 T02220172  RH  073%=      5-min Rain = 0
KEN1 140825Z 13010KT 22/17 A302 RMK A01 T02220173  RH  074%=      5-min Rain = 0
KEN1 140826Z 13012KT 22/17 A302 RMK A01 T02220173  RH  074%=      5-min Rain = 0
KEN1 140827Z 13012KT 22/17 A302 RMK A01 T02220172  RH  073%=      5-min Rain = 0
KEN1 140828Z 13011KT 22/17 A302 RMK A01 T02230172  RH  073%=      5-min Rain = 0
KEN1 140829Z 13009KT 22/17 A302 RMK A01 T02230172  RH  073%=      5-min Rain = 0
KEN1 140830Z 13009KT 22/17 A302 RMK A01 T02230173  RH  074%=      5-min Rain = 0
KEN1 140831Z 12009KT 22/17 A302 RMK A01 T02220173  RH  074%=      5-min Rain = 0
KEN1 140832Z 12008KT 22/17 A302 RMK A01 T02220172  RH  073%=      5-min Rain = 0
KEN1 140833Z 12008KT 22/17 A302 RMK A01 T02220173  RH  074%=      5-min Rain = 0
KEN1 140834Z 11007KT 22/17 A3021 RMK A01 T02210172  RH  074%=      5-min Rain = 0
KEN1 140835Z 11009KT 22/17 A3021 RMK A01 T02210172  RH  074%=      5-min Rain = 0
KEN1 140836Z 11008KT 22/17 A3021 RMK A01 T02210172  RH  074%=      5-min Rain = 0
KEN1 140837Z 09007KT 22/17 A3021 RMK A01 T02210173  RH  074%=      5-min Rain = 0
KEN1 140838Z 08007KT 22/17 A3021 RMK A01 T02200173  RH  074%=      5-min Rain = 0
KEN1 140839Z 07006KT 22/17 A3022 RMK A01 T02190173  RH  075%=      5-min Rain = 0
KEN1 140840Z 08007KT 22/17 A3022 RMK A01 T02180173  RH  075%=      5-min Rain = 0
KEN1 140841Z 06005KT 22/17 A3022 RMK A01 T02180173  RH  076%=      5-min Rain = 0
KEN1 140842Z 06007KT 22/17 A3022 RMK A01 T02180174  RH  076%=      5-min Rain = 0
KEN1 140843Z 06008KT 22/17 A3023 RMK A01 T02170174  RH  076%=      5-min Rain = 0
KEN1 140844Z 06012KT 22/17 A3023 RMK A01 T02170174  RH  076%=      5-min Rain = 0
KEN1 140845Z 05014KT 22/17 A3023 RMK A01 T02170174  RH  077%=      5-min Rain = 0
KEN1 140846Z 06016KT 22/17 A3023 RMK A01 T02160174  RH  077%=      5-min Rain = 0
KEN1 140847Z 07016KT 22/17 A3024 RMK A01 T02150172  RH  077%=      5-min Rain = 0
KEN1 140848Z 07014KT 21/17 A3024 RMK A01 T02140172  RH  077%=      5-min Rain = 0
KEN1 140849Z 07015KT 21/17 A3025 RMK A01 T02130170  RH  077%=      5-min Rain = 0
KEN1 140850Z 06014KT 21/17 A3025 RMK A01 T02110167  RH  076%=      5-min Rain = 0
KEN1 140851Z 07013KT 21/17 A3025 RMK A01 T02090166  RH  076%=      5-min Rain = 0
KEN1 140852Z 07015KT 21/17 A3025 RMK A01 T02070165  RH  077%=      5-min Rain = 0
KEN1 140853Z 07016KT 21/16 A3025 RMK A01 T02060163  RH  076%=      5-min Rain = 0
KEN1 140854Z 08017KT 21/16 A3025 RMK A01 T02050163  RH  077%=      5-min Rain = 0
KEN1 140855Z 08015KT 21/16 A3026 RMK A01 T02050162  RH  077%=      5-min Rain = 0
KEN1 140856Z 08015KT 20/16 A3026 RMK A01 T02040162  RH  077%=      5-min Rain = 0
KEN1 140857Z 08012KT 20/16 A3026 RMK A01 T02030161  RH  077%=      5-min Rain = 0
KEN1 140858Z 07010KT 20/16 A3026 RMK A01 T02030162  RH  077%=      5-min Rain = 0
KEN1 140859Z 07013KT 20/16 A3026 RMK A01 T02030162  RH  077%=      5-min Rain = 0
KEN1 140900Z 06009KT 20/16 A3026 RMK A01 T02030161  RH  077%=      5-min Rain = 0
KEN1 140901Z 06010KT 20/16 A3026 RMK A01 T02020162  RH  077%=      5-min Rain = 0
KEN1 140902Z 06010KT 20/16 A3027 RMK A01 T02020161  RH  077%=      5-min Rain = 0
KEN1 140903Z 06011KT 20/16 A3027 RMK A01 T02020161  RH  077%=      5-min Rain = 0
KEN1 140904Z 06012KT 20/16 A3027 RMK A01 T02010160  RH  077%=      5-min Rain = 0
KEN1 140905Z 05014KT 20/16 A3027 RMK A01 T02010160  RH  077%=      5-min Rain = 0
KEN1 140906Z 05017KT 20/16 A3027 RMK A01 T02010158  RH  076%=      5-min Rain = 0
KEN1 140907Z 05013KT 20/16 A3027 RMK A01 T02010157  RH  076%=      5-min Rain = 0
KEN1 140908Z 05012KT 20/16 A3028 RMK A01 T02010158  RH  076%=      5-min Rain = 0
KEN1 140909Z 05014KT 20/16 A3028 RMK A01 T02000157  RH  076%=      5-min Rain = 0
KEN1 140910Z 04013KT 20/16 A3028 RMK A01 T02000157  RH  076%=      5-min Rain = 0
KEN1 140911Z 04014KT 20/16 A3028 RMK A01 T02000156  RH  076%=      5-min Rain = 0
KEN1 140912Z 03012KT 20/16 A3028 RMK A01 T02000156  RH  076%=      5-min Rain = 0
KEN1 140913Z 03015KT 20/16 A3029 RMK A01 T02000156  RH  076%=      5-min Rain = 0
KEN1 140914Z 04016KT 20/15 A3029 RMK A01 T02000154  RH  075%=      5-min Rain = 0
KEN1 140915Z 03017KT 20/15 A3029 RMK A01 T02000154  RH  075%=      5-min Rain = 0
KEN1 140916Z 03016KT 20/15 A3029 RMK A01 T02000153  RH  074%=      5-min Rain = 0
KEN1 140917Z 03017G22KT 20/15 A3029 RMK A01 T01990152  RH  074%=      5-min Rain = 0
KEN1 140918Z 03020KT 20/15 A3029 RMK A01 T01990150  RH  073%=      5-min Rain = 0
KEN1 140919Z 03019KT 20/15 A3029 RMK A01 T01990149  RH  073%=      5-min Rain = 0
KEN1 140920Z 03021G27KT 20/15 A3029 RMK A01 T01990147  RH  072%=      5-min Rain = 0
KEN1 140921Z 04021KT 20/14 A3029 RMK A01 T01970142  RH  070%=      5-min Rain = 0
KEN1 140922Z 03024G30KT 20/14 A3028 RMK A01 T01970138  RH  069%=      5-min Rain = 0
KEN1 140923Z 04022KT 20/14 A3028 RMK A01 T01970136  RH  068%=      5-min Rain = 0
KEN1 140924Z 04021KT 20/14 A3028 RMK A01 T01960136  RH  068%=      5-min Rain = 0
KEN1 140925Z 05021KT 20/14 A3028 RMK A01 T01970136  RH  068%=      5-min Rain = 0
KEN1 140926Z 05019G24KT 20/14 A3027 RMK A01 T01960136  RH  068%=      5-min Rain = 0
KEN1 140927Z 05015KT 20/14 A3027 RMK A01 T01960136  RH  068%=      5-min Rain = 0
KEN1 140928Z 05015KT 20/14 A3027 RMK A01 T01960136  RH  068%=      5-min Rain = 0
KEN1 140929Z 06014KT 20/14 A3027 RMK A01 T01960136  RH  068%=      5-min Rain = 0
KEN1 140930Z 06020KT 20/14 A3027 RMK A01 T01960136  RH  068%=      5-min Rain = 0
KEN1 140931Z 06019G24KT 20/14 A3026 RMK A01 T01980136  RH  068%=      5-min Rain = 0
KEN1 140932Z 06018KT 20/14 A3026 RMK A01 T01990136  RH  067%=      5-min Rain = 0
KEN1 140933Z 07018KT 20/14 A3027 RMK A01 T02010137  RH  067%=      5-min Rain = 0
KEN1 140934Z 06018G23KT 20/14 A3027 RMK A01 T02010136  RH  066%=      5-min Rain = 0
KEN1 140935Z 06017G22KT 20/14 A3027 RMK A01 T02020136  RH  066%=      5-min Rain = 0
KEN1 140936Z 06016KT 20/14 A3027 RMK A01 T02030138  RH  066%=      5-min Rain = 0
KEN1 140937Z 06015KT 20/14 A3027 RMK A01 T02030138  RH  066%=      5-min Rain = 0
KEN1 140938Z 06014KT 20/14 A3027 RMK A01 T02030138  RH  066%=      5-min Rain = 0
KEN1 140939Z 06012KT 20/14 A3027 RMK A01 T02020137  RH  066%=      5-min Rain = 0
KEN1 140940Z 06014KT 20/14 A3027 RMK A01 T02020137  RH  066%=      5-min Rain = 0
KEN1 140941Z 06012G17KT 20/14 A3027 RMK A01 T02020137  RH  066%=      5-min Rain = 0
KEN1 140942Z 06017KT 20/14 A3027 RMK A01 T02020137  RH  066%=      5-min Rain = 0
KEN1 140943Z 05016KT 20/14 A3027 RMK A01 T02030136  RH  065%=      5-min Rain = 0
KEN1 140944Z 04016KT 20/14 A3027 RMK A01 T02030136  RH  065%=      5-min Rain = 0
KEN1 140945Z 05020G31KT 20/14 A3027 RMK A01 T02010137  RH  067%=      5-min Rain = 0
KEN1 140946Z 05027KT 20/14 A3027 RMK A01 T01960137  RH  069%=      5-min Rain = 0
KEN1 140947Z 05022G28KT 19/14 A3027 RMK A01 T01900139  RH  073%=      5-min Rain = 0
KEN1 140948Z 06022G30KT 19/14 A3026 RMK A01 T01860142  RH  076%=      5-min Rain = 0
KEN1 140949Z 06019G24KT 18/14 A3026 RMK A01 T01820143  RH  078%=      5-min Rain = 0
KEN1 140950Z 05019G25KT 18/15 A3026 RMK A01 T01800145  RH  080%=      5-min Rain = 0
KEN1 140951Z 06021KT 18/15 A3026 RMK A01 T01770146  RH  082%=      5-min Rain = 0
KEN1 140952Z 06017KT 18/15 A3025 RMK A01 T01760147  RH  083%=      5-min Rain = 0
KEN1 140953Z 06019KT 18/15 A3025 RMK A01 T01750147  RH  084%=      5-min Rain = 0
KEN1 140954Z 05019KT 17/15 A3025 RMK A01 T01740148  RH  085%=      5-min Rain = 0
KEN1 140955Z 04017G22KT 17/15 A3025 RMK A01 T01740148  RH  085%=      5-min Rain = 0
KEN1 140956Z 04019KT 17/15 A3025 RMK A01 T01740149  RH  085%=      5-min Rain = 0
KEN1 140957Z 05017KT 17/15 A3025 RMK A01 T01740149  RH  085%=      5-min Rain = 0
KEN1 140958Z 05017KT 18/15 A3025 RMK A01 T01750150  RH  085%=      5-min Rain = 0
KEN1 140959Z 05016KT 18/15 A3025 RMK A01 T01750150  RH  086%=      5-min Rain = 0
KEN1 141000Z 06016KT 18/15 A3025 RMK A01 T01750151  RH  086%=      5-min Rain = 0
KEN1 141001Z 07018KT 18/15 A3024 RMK A01 T01750150  RH  085%=      5-min Rain = 0
KEN1 141002Z 07018KT 18/15 A3024 RMK A01 T01750149  RH  084%=      5-min Rain = 0
KEN1 141003Z 07016KT 18/15 A3024 RMK A01 T01760149  RH  084%=      5-min Rain = 0
KEN1 141004Z 07013G18KT 18/15 A3024 RMK A01 T01760150  RH  084%=      5-min Rain = 0
KEN1 141005Z 07013KT 18/15 A3024 RMK A01 T01760148  RH  084%=      5-min Rain = 0
KEN1 141006Z 06016KT 18/15 A3024 RMK A01 T01760147  RH  083%=      5-min Rain = 0
KEN1 141007Z 07016KT 18/15 A3024 RMK A01 T01750145  RH  083%=      5-min Rain = 0
KEN1 141008Z 07018KT 17/15 A3024 RMK A01 T01740145  RH  083%=      5-min Rain = 0
KEN1 141009Z 07020KT 18/14 A3024 RMK A01 T01750142  RH  081%=      5-min Rain = 0
KEN1 141010Z 07019KT 18/14 A3024 RMK A01 T01750141  RH  080%=      5-min Rain = 0
KEN1 141011Z 06019KT 18/14 A3024 RMK A01 T01750141  RH  080%=      5-min Rain = 0
KEN1 141012Z 07018KT 18/14 A3024 RMK A01 T01750140  RH  080%=      5-min Rain = 0
KEN1 141013Z 08017KT 18/14 A3024 RMK A01 T01750140  RH  079%=      5-min Rain = 0
KEN1 141014Z 08020KT 18/14 A3024 RMK A01 T01770140  RH  079%=      5-min Rain = 0
KEN1 141015Z 08018KT 18/14 A3024 RMK A01 T01780140  RH  078%=      5-min Rain = 0
KEN1 141016Z 08021KT 18/14 A3024 RMK A01 T01790139  RH  078%=      5-min Rain = 0
KEN1 141017Z 08021KT 18/14 A3024 RMK A01 T01800139  RH  077%=      5-min Rain = 0
KEN1 141018Z 08017KT 18/14 A3024 RMK A01 T01800138  RH  076%=      5-min Rain = 0
KEN1 141019Z 08018KT 18/14 A3024 RMK A01 T01810138  RH  076%=      5-min Rain = 0
KEN1 141020Z 08018KT 18/14 A3024 RMK A01 T01810137  RH  075%=      5-min Rain = 0
KEN1 141021Z 09018KT 18/14 A3024 RMK A01 T01810135  RH  074%=      5-min Rain = 0
KEN1 141022Z 08016KT 18/14 A3024 RMK A01 T01820135  RH  074%=      5-min Rain = 0
KEN1 141023Z 09014KT 18/13 A3024 RMK A01 T01820134  RH  074%=      5-min Rain = 0
KEN1 141024Z 08017KT 18/13 A3024 RMK A01 T01830134  RH  073%=      5-min Rain = 0
KEN1 141025Z 08017KT 18/13 A3025 RMK A01 T01840134  RH  073%=      5-min Rain = 0
KEN1 141026Z 08017KT 19/13 A3025 RMK A01 T01860133  RH  071%=      5-min Rain = 0
KEN1 141027Z 08015KT 19/13 A3025 RMK A01 T01870132  RH  070%=      5-min Rain = 0
KEN1 141028Z 08016KT 19/13 A3025 RMK A01 T01890131  RH  069%=      5-min Rain = 0
KEN1 141029Z 08015KT 19/13 A3026 RMK A01 T01890131  RH  069%=      5-min Rain = 0
KEN1 141030Z 08015KT 19/13 A3026 RMK A01 T01890131  RH  069%=      5-min Rain = 0
KEN1 141031Z 08014KT 19/13 A3026 RMK A01 T01900131  RH  069%=      5-min Rain = 0
KEN1 141032Z 07015KT 19/13 A3026 RMK A01 T01900133  RH  070%=      5-min Rain = 0
KEN1 141033Z 07015KT 19/13 A3026 RMK A01 T01890133  RH  070%=      5-min Rain = 0
KEN1 141034Z 08014KT 19/13 A3026 RMK A01 T01890134  RH  070%=      5-min Rain = 0
KEN1 141035Z 07011KT 19/13 A3027 RMK A01 T01880134  RH  071%=      5-min Rain = 0
KEN1 141036Z 07014KT 19/13 A3027 RMK A01 T01870134  RH  071%=      5-min Rain = 0
KEN1 141037Z 07014KT 19/13 A3027 RMK A01 T01870133  RH  071%=      5-min Rain = 0
KEN1 141038Z 07015KT 19/13 A3027 RMK A01 T01860133  RH  071%=      5-min Rain = 0
KEN1 141039Z 06012KT 19/13 A3027 RMK A01 T01850132  RH  071%=      5-min Rain = 0
KEN1 141040Z 07012KT 19/13 A3028 RMK A01 T01850133  RH  072%=      5-min Rain = 0
KEN1 141041Z 07013KT 18/13 A3028 RMK A01 T01840132  RH  072%=      5-min Rain = 0
KEN1 141042Z 06014G20KT 18/13 A3028 RMK A01 T01840132  RH  072%=      5-min Rain = 0
KEN1 141043Z 06015KT 18/13 A3028 RMK A01 T01840131  RH  071%=      5-min Rain = 0
KEN1 141044Z 06015KT 18/13 A3028 RMK A01 T01830132  RH  072%=      5-min Rain = 0
KEN1 141045Z 06012KT 18/13 A3028 RMK A01 T01820134  RH  073%=      5-min Rain = 0
KEN1 141046Z 06011KT 18/14 A3028 RMK A01 T01810135  RH  075%=      5-min Rain = 0
KEN1 141047Z 07012KT 18/14 A3028 RMK A01 T01800136  RH  076%=      5-min Rain = 0
KEN1 141048Z 06011G16KT 18/13 A3028 RMK A01 T01790134  RH  075%=      5-min Rain = 0
KEN1 141049Z 06012KT 18/14 A3028 RMK A01 T01790135  RH  076%=      5-min Rain = 0
KEN1 141050Z 05012KT 18/14 A3029 RMK A01 T01780136  RH  076%=      5-min Rain = 0
KEN1 141051Z 05013KT 18/14 A3029 RMK A01 T01770135  RH  076%=      5-min Rain = 0
KEN1 141052Z 05013KT 18/14 A3029 RMK A01 T01770135  RH  077%=      5-min Rain = 0
KEN1 141053Z 05012KT 18/14 A3029 RMK A01 T01760135  RH  077%=      5-min Rain = 0
KEN1 141054Z 06011G16KT 18/14 A3029 RMK A01 T01760136  RH  077%=      5-min Rain = 0
KEN1 141055Z 06012KT 18/13 A3029 RMK A01 T01750134  RH  077%=      5-min Rain = 0
KEN1 141056Z 05012KT 17/14 A303 RMK A01 T01740135  RH  077%=      5-min Rain = 0
KEN1 141057Z 04012KT 17/14 A303 RMK A01 T01740135  RH  077%=      5-min Rain = 0
KEN1 141058Z 03010KT 17/14 A3031 RMK A01 T01740136  RH  078%=      5-min Rain = 0
KEN1 141059Z 01012KT 17/14 A3031 RMK A01 T01740137  RH  079%=      5-min Rain = 0
KEN1 141100Z 35013KT 17/14 A3032 RMK A01 T01730137  RH  079%=      5-min Rain = 0
KEN1 141101Z 34013KT 17/14 A3033 RMK A01 T01730137  RH  079%=      5-min Rain = 0
KEN1 141102Z 32014KT 17/14 A3033 RMK A01 T01740141  RH  081%=      5-min Rain = 0
KEN1 141103Z 32015KT 17/14 A3034 RMK A01 T01730142  RH  082%=      5-min Rain = 0
KEN1 141104Z 32014KT 17/14 A3034 RMK A01 T01740143  RH  082%=      5-min Rain = 0
KEN1 141105Z 31015KT 17/14 A3034 RMK A01 T01740144  RH  083%=      5-min Rain = 0
KEN1 141106Z 32017KT 17/14 A3034 RMK A01 T01740142  RH  082%=      5-min Rain = 0
KEN1 141107Z 30014KT 17/14 A3035 RMK A01 T01730142  RH  082%=      5-min Rain = 0
KEN1 141108Z 31016KT 17/14 A3035 RMK A01 T01720144  RH  084%=      5-min Rain = 0
KEN1 141109Z 29016KT 17/14 A3035 RMK A01 T01700144  RH  085%=      5-min Rain = 0
KEN1 141110Z 29016KT 17/15 A3035 RMK A01 T01680145  RH  087%=      5-min Rain = 0
KEN1 141111Z 28012KT 17/15 A3035 RMK A01 T01660148  RH  089%=      5-min Rain = 0
KEN1 141112Z 28011KT 17/15 A3036 RMK A01 T01650150  RH  091%=      5-min Rain = 0
KEN1 141113Z 29014KT 16/15 A3036 RMK A01 T01640151  RH  092%=      5-min Rain = 0
KEN1 141114Z 30013KT 16/15 A3036 RMK A01 T01630151  RH  092%=      5-min Rain = 0
KEN1 141115Z 29015KT 16/15 A3036 RMK A01 T01620151  RH  093%=      5-min Rain = 0
KEN1 141116Z 29019KT 16/15 A3036 RMK A01 T01620151  RH  094%=      5-min Rain = 0
KEN1 141117Z 29019KT 16/15 A3035 RMK A01 T01610150  RH  093%=      5-min Rain = 0
KEN1 141118Z 30018KT 16/15 A3035 RMK A01 T01600147  RH  092%=      5-min Rain = 0
KEN1 141119Z 30020KT 16/15 A3035 RMK A01 T01600147  RH  092%=      5-min Rain = 0
KEN1 141120Z 30015KT 16/15 A3035 RMK A01 T01600146  RH  092%=      5-min Rain = 0
KEN1 141121Z 32013KT 16/15 A3035 RMK A01 T01590146  RH  092%=      5-min Rain = 0
KEN1 141122Z 33011KT 16/15 A3036 RMK A01 T01590146  RH  092%=      5-min Rain = 0
KEN1 141123Z 32012KT 16/15 A3036 RMK A01 T01580146  RH  093%=      5-min Rain = 0
KEN1 141124Z 31011KT 16/15 A3035 RMK A01 T01580147  RH  093%=      5-min Rain = 0
KEN1 141125Z 32010KT 16/15 A3035 RMK A01 T01570148  RH  094%=      5-min Rain = 0
KEN1 141126Z 33009KT 16/15 A3036 RMK A01 T01570147  RH  094%=      5-min Rain = 0
KEN1 141127Z 34009KT 16/15 A3035 RMK A01 T01560147  RH  094%=      5-min Rain = 0
KEN1 141128Z 34010KT 16/15 A3035 RMK A01 T01560147  RH  094%=      5-min Rain = 0
KEN1 141129Z 35010KT 16/15 A3035 RMK A01 T01560147  RH  094%=      5-min Rain = 0
KEN1 141130Z 01010KT 16/15 A3035 RMK A01 T01550147  RH  095%=      5-min Rain = 0
KEN1 141131Z 01011KT 16/15 A3035 RMK A01 T01560146  RH  094%=      5-min Rain = 0
KEN1 141132Z 02009KT 16/15 A3035 RMK A01 T01560145  RH  093%=      5-min Rain = 0
KEN1 141133Z 02009KT 16/15 A3036 RMK A01 T01560145  RH  093%=      5-min Rain = 0
KEN1 141134Z 02008KT 16/14 A3036 RMK A01 T01560144  RH  093%=      5-min Rain = 0
KEN1 141135Z 03007KT 16/15 A3036 RMK A01 T01560145  RH  093%=      5-min Rain = 0
KEN1 141136Z 04009KT 16/15 A3036 RMK A01 T01560145  RH  093%=      5-min Rain = 0
KEN1 141137Z 03011KT 16/14 A3036 RMK A01 T01560144  RH  093%=      5-min Rain = 0
KEN1 141138Z 04010KT 16/14 A3036 RMK A01 T01560144  RH  093%=      5-min Rain = 0
KEN1 141139Z 04010KT 16/15 A3036 RMK A01 T01560146  RH  093%=      5-min Rain = 0
KEN1 141140Z 05011KT 16/15 A3036 RMK A01 T01560146  RH  094%=      5-min Rain = 0
KEN1 141141Z 05011KT 16/15 A3036 RMK A01 T01560147  RH  094%=      5-min Rain = 0
KEN1 141142Z 06011KT 16/15 A3035 RMK A01 T01560146  RH  094%=      5-min Rain = 0
KEN1 141143Z 06013KT 16/15 A3035 RMK A01 T01560146  RH  094%=      5-min Rain = 0
KEN1 141144Z 07013KT 16/15 A3034 RMK A01 T01560146  RH  094%=      5-min Rain = 0
KEN1 141145Z 07015KT 16/15 A3034 RMK A01 T01560146  RH  094%=      5-min Rain = 0
KEN1 141146Z 07016KT 16/15 A3033 RMK A01 T01560146  RH  094%=      5-min Rain = 0
KEN1 141147Z 07016KT 16/15 A3033 RMK A01 T01560146  RH  094%=      5-min Rain = 0
KEN1 141148Z 07018KT 16/15 A3032 RMK A01 T01560146  RH  094%=      5-min Rain = 0
KEN1 141149Z 07018KT 16/15 A3032 RMK A01 T01560145  RH  093%=      5-min Rain = 0
KEN1 141150Z 07019KT 16/15 A3032 RMK A01 T01560145  RH  093%=      5-min Rain = 0
KEN1 141151Z 07018KT 16/15 A3032 RMK A01 T01560145  RH  093%=      5-min Rain = 0
KEN1 141152Z 07018KT 16/15 A3031 RMK A01 T01560146  RH  094%=      5-min Rain = 0
KEN1 141153Z 07019KT 16/15 A3031 RMK A01 T01550146  RH  094%=      5-min Rain = 0
KEN1 141154Z 07018G23KT 16/15 A3031 RMK A01 T01550146  RH  094%=      5-min Rain = 0
KEN1 141155Z 07018KT 16/15 A3031 RMK A01 T01550146  RH  094%=      5-min Rain = 0
KEN1 141156Z 06017KT 16/15 A3031 RMK A01 T01550146  RH  094%=      5-min Rain = 0
KEN1 141157Z 06016KT 16/15 A3032 RMK A01 T01550146  RH  094%=      5-min Rain = 0
KEN1 141158Z 06017KT 16/15 A3032 RMK A01 T01550146  RH  095%=      5-min Rain = 0
KEN1 141159Z 06015KT 16/15 A3032 RMK A01 T01550146  RH  095%=      5-min Rain = 0
KEN1 141200Z 07015KT 16/15 A3032 RMK A01 T01550146  RH  095%=      5-min Rain = 0
KEN1 141201Z 07013KT 16/15 A3032 RMK A01 T01550146  RH  094%=      5-min Rain = 0
KEN1 141202Z 07014KT 16/15 A3032 RMK A01 T01550146  RH  095%=      5-min Rain = 0
KEN1 141203Z 06014KT 16/15 A3033 RMK A01 T01550146  RH  094%=      5-min Rain = 0
KEN1 141204Z 06014KT 16/15 A3033 RMK A01 T01550145  RH  094%=      5-min Rain = 0
KEN1 141205Z 07015KT 16/15 A3033 RMK A01 T01550145  RH  094%=      5-min Rain = 0
KEN1 141206Z 07015KT 16/15 A3033 RMK A01 T01550145  RH  093%=      5-min Rain = 0
KEN1 141207Z 07013KT 16/15 A3033 RMK A01 T01550145  RH  093%=      5-min Rain = 0
KEN1 141208Z 08012KT 16/15 A3033 RMK A01 T01560145  RH  093%=      5-min Rain = 0
KEN1 141209Z 08014KT 16/15 A3033 RMK A01 T01560145  RH  094%=      5-min Rain = 0
KEN1 141210Z 08013KT 16/15 A3033 RMK A01 T01560145  RH  094%=      5-min Rain = 0
KEN1 141211Z 09015KT 16/15 A3032 RMK A01 T01560146  RH  094%=      5-min Rain = 0
KEN1 141212Z 09014KT 16/15 A3032 RMK A01 T01560146  RH  094%=      5-min Rain = 0
KEN1 141213Z 09013KT 16/15 A3032 RMK A01 T01560145  RH  094%=      5-min Rain = 0
KEN1 141214Z 09013KT 16/15 A3032 RMK A01 T01560145  RH  094%=      5-min Rain = 0
KEN1 141215Z 09013KT 16/15 A3032 RMK A01 T01560146  RH  094%=      5-min Rain = 0
KEN1 141216Z 09013KT 16/15 A3032 RMK A01 T01560146  RH  094%=      5-min Rain = 0
KEN1 141217Z 10012KT 16/15 A3032 RMK A01 T01560146  RH  094%=      5-min Rain = 0
KEN1 141218Z 10012KT 16/15 A3032 RMK A01 T01560147  RH  094%=      5-min Rain = 0
KEN1 141219Z 09011KT 16/15 A3032 RMK A01 T01560146  RH  094%=      5-min Rain = 0
KEN1 141220Z 10010KT 16/15 A3032 RMK A01 T01560146  RH  094%=      5-min Rain = 0
KEN1 141221Z 10010KT 16/15 A3032 RMK A01 T01560146  RH  094%=      5-min Rain = 0
KEN1 141222Z 09011KT 16/15 A3033 RMK A01 T01560146  RH  094%=      5-min Rain = 0
KEN1 141223Z 09008KT 16/15 A3033 RMK A01 T01560145  RH  093%=      5-min Rain = 0
KEN1 141224Z 10008KT 16/15 A3033 RMK A01 T01560146  RH  094%=      5-min Rain = 0
KEN1 141225Z 10009KT 16/15 A3033 RMK A01 T01560146  RH  094%=      5-min Rain = 0
KEN1 141226Z 10007KT 16/15 A3033 RMK A01 T01560146  RH  094%=      5-min Rain = 0
KEN1 141227Z 10007KT 16/15 A3033 RMK A01 T01560147  RH  094%=      5-min Rain = 0
KEN1 141228Z 11009KT 16/15 A3032 RMK A01 T01560147  RH  094%=      5-min Rain = 0
KEN1 141229Z 12012KT 16/15 A3031 RMK A01 T01560147  RH  094%=      5-min Rain = 0
KEN1 141230Z 12014KT 16/15 A303 RMK A01 T01570147  RH  094%=      5-min Rain = 0
KEN1 141231Z 11015KT 16/15 A3029 RMK A01 T01580147  RH  093%=      5-min Rain = 0
KEN1 141232Z 11016KT 16/15 A3029 RMK A01 T01580147  RH  093%=      5-min Rain = 0
KEN1 141233Z 11014KT 16/15 A3029 RMK A01 T01590146  RH  092%=      5-min Rain = 0
KEN1 141234Z 11012KT 16/15 A3029 RMK A01 T01590147  RH  092%=      5-min Rain = 0
KEN1 141235Z 10015KT 16/15 A3029 RMK A01 T01590147  RH  093%=      5-min Rain = 0
KEN1 141236Z 10015KT 16/15 A3028 RMK A01 T01600147  RH  092%=      5-min Rain = 0
KEN1 141237Z 10017KT 16/15 A3028 RMK A01 T01590147  RH  092%=      5-min Rain = 0
KEN1 141238Z 10018KT 16/15 A3028 RMK A01 T01600147  RH  092%=      5-min Rain = 0
KEN1 141239Z 09020KT 16/15 A3027 RMK A01 T01610147  RH  092%=      5-min Rain = 0
KEN1 141240Z 09019KT 16/15 A3027 RMK A01 T01610147  RH  091%=      5-min Rain = 0
KEN1 141241Z 09017KT 16/15 A3027 RMK A01 T01610147  RH  091%=      5-min Rain = 0
KEN1 141242Z 10019KT 16/15 A3027 RMK A01 T01620147  RH  091%=      5-min Rain = 0
KEN1 141243Z 10018KT 16/15 A3027 RMK A01 T01620147  RH  091%=      5-min Rain = 0
KEN1 141244Z 10016KT 16/15 A3027 RMK A01 T01620147  RH  091%=      5-min Rain = 0
KEN1 141245Z 10015KT 16/15 A3027 RMK A01 T01620146  RH  090%=      5-min Rain = 0
KEN1 141246Z 10015KT 16/15 A3027 RMK A01 T01630147  RH  090%=      5-min Rain = 0
KEN1 141247Z 10016KT 16/15 A3027 RMK A01 T01630146  RH  089%=      5-min Rain = 0
KEN1 141248Z 10014KT 16/15 A3027 RMK A01 T01640146  RH  089%=      5-min Rain = 0
KEN1 141249Z 10013G18KT 16/15 A3027 RMK A01 T01640146  RH  089%=      5-min Rain = 0
KEN1 141250Z 10013KT 16/15 A3027 RMK A01 T01640147  RH  089%=      5-min Rain = 0
KEN1 141251Z 10013KT 16/15 A3027 RMK A01 T01640146  RH  089%=      5-min Rain = 0
KEN1 141252Z 10013KT 17/15 A3027 RMK A01 T01650146  RH  088%=      5-min Rain = 0
KEN1 141253Z 12011KT 17/15 A3027 RMK A01 T01650146  RH  088%=      5-min Rain = 0
KEN1 141254Z 13014KT 17/15 A3026 RMK A01 T01660148  RH  089%=      5-min Rain = 0
KEN1 141255Z 13018G23KT 17/15 A3025 RMK A01 T01660147  RH  089%=      5-min Rain = 0
KEN1 141256Z 13017KT 17/15 A3025 RMK A01 T01670146  RH  087%=      5-min Rain = 0
KEN1 141257Z 13014KT 17/15 A3025 RMK A01 T01680147  RH  087%=      5-min Rain = 0
KEN1 141258Z 13011KT 17/15 A3025 RMK A01 T01690146  RH  087%=      5-min Rain = 0
KEN1 141259Z 12010KT 17/15 A3026 RMK A01 T01690145  RH  085%=      5-min Rain = 0.02
KEN1 141300Z 11008G13KT 17/14 A3026 RMK A01 T01700144  RH  085%=      5-min Rain = 0.04
KEN1 141301Z 11009KT 17/14 A3026 RMK A01 T01710144  RH  084%=      5-min Rain = 0.05
KEN1 141302Z 12011KT 17/14 A3026 RMK A01 T01720143  RH  083%=      5-min Rain = 0.04
KEN1 141303Z 13009KT 17/14 A3026 RMK A01 T01720144  RH  083%=      5-min Rain = 0.01
KEN1 141304Z 13012KT 17/14 A3026 RMK A01 T01730144  RH  083%=      5-min Rain = 0
KEN1 141305Z 14011KT 17/14 A3026 RMK A01 T01730143  RH  083%=      5-min Rain = 0
KEN1 141306Z 13011G16KT 17/15 A3026 RMK A01 T01730145  RH  083%=      5-min Rain = 0
KEN1 141307Z 13011KT 17/14 A3025 RMK A01 T01730143  RH  083%=      5-min Rain = 0
KEN1 141308Z 12010KT 17/14 A3025 RMK A01 T01730142  RH  082%=      5-min Rain = 0
KEN1 141309Z 12012KT 17/14 A3025 RMK A01 T01740140  RH  080%=      5-min Rain = 0
KEN1 141310Z 12011KT 18/14 A3025 RMK A01 T01760139  RH  079%=      5-min Rain = 0
KEN1 141311Z 12009KT 18/14 A3026 RMK A01 T01770141  RH  079%=      5-min Rain = 0
KEN1 141312Z 11011KT 18/14 A3026 RMK A01 T01770142  RH  080%=      5-min Rain = 0
KEN1 141313Z 11011KT 18/14 A3026 RMK A01 T01770140  RH  079%=      5-min Rain = 0
KEN1 141314Z 11010KT 18/14 A3026 RMK A01 T01780139  RH  078%=      5-min Rain = 0
KEN1 141315Z 12008KT 18/14 A3026 RMK A01 T01780140  RH  078%=      5-min Rain = 0
KEN1 141316Z 11011KT 18/14 A3026 RMK A01 T01790140  RH  078%=      5-min Rain = 0
KEN1 141317Z 11009KT 18/14 A3027 RMK A01 T01790139  RH  078%=      5-min Rain = 0
KEN1 141318Z 10010KT 18/14 A3027 RMK A01 T01790138  RH  077%=      5-min Rain = 0
KEN1 141319Z 10011KT 18/14 A3026 RMK A01 T01800138  RH  077%=      5-min Rain = 0
KEN1 141320Z 10008KT 18/14 A3026 RMK A01 T01800140  RH  077%=      5-min Rain = 0
KEN1 141321Z 10009KT 18/14 A3026 RMK A01 T01800141  RH  078%=      5-min Rain = 0
KEN1 141322Z 10010KT 18/14 A3026 RMK A01 T01790140  RH  078%=      5-min Rain = 0
KEN1 141323Z 09011KT 18/14 A3026 RMK A01 T01790141  RH  078%=      5-min Rain = 0
KEN1 141324Z 10011KT 18/14 A3026 RMK A01 T01790140  RH  078%=      5-min Rain = 0
KEN1 141325Z 09010KT 18/14 A3026 RMK A01 T01780142  RH  079%=      5-min Rain = 0
KEN1 141326Z 09010KT 18/14 A3026 RMK A01 T01780141  RH  079%=      5-min Rain = 0
KEN1 141327Z 09010KT 18/14 A3026 RMK A01 T01770140  RH  079%=      5-min Rain = 0
KEN1 141328Z 09009KT 18/14 A3026 RMK A01 T01770141  RH  079%=      5-min Rain = 0
KEN1 141329Z 10008KT 18/14 A3026 RMK A01 T01770144  RH  081%=      5-min Rain = 0
KEN1 141330Z 10009KT 18/14 A3026 RMK A01 T01760144  RH  081%=      5-min Rain = 0
KEN1 141331Z 10010KT 18/14 A3026 RMK A01 T01760144  RH  081%=      5-min Rain = 0
KEN1 141332Z 10011KT 18/14 A3026 RMK A01 T01770141  RH  080%=      5-min Rain = 0
KEN1 141333Z 11010KT 18/14 A3026 RMK A01 T01780142  RH  079%=      5-min Rain = 0
KEN1 141334Z 11010KT 18/14 A3026 RMK A01 T01800143  RH  079%=      5-min Rain = 0
KEN1 141335Z 11011KT 18/14 A3026 RMK A01 T01820139  RH  076%=      5-min Rain = 0
KEN1 141336Z 11010KT 18/14 A3026 RMK A01 T01840141  RH  076%=      5-min Rain = 0
KEN1 141337Z 12012KT 19/14 A3026 RMK A01 T01860141  RH  075%=      5-min Rain = 0
KEN1 141338Z 12011KT 19/14 A3026 RMK A01 T01880144  RH  075%=      5-min Rain = 0
KEN1 141339Z 12013KT 19/14 A3026 RMK A01 T01890143  RH  074%=      5-min Rain = 0
KEN1 141340Z 11011KT 19/14 A3026 RMK A01 T01900144  RH  075%=      5-min Rain = 0
KEN1 141341Z 12011KT 19/14 A3026 RMK A01 T01900142  RH  073%=      5-min Rain = 0
KEN1 141342Z 11012KT 19/14 A3026 RMK A01 T01910144  RH  074%=      5-min Rain = 0
KEN1 141343Z 11014KT 19/14 A3026 RMK A01 T01920143  RH  073%=      5-min Rain = 0
KEN1 141344Z 11011KT 19/14 A3026 RMK A01 T01920142  RH  073%=      5-min Rain = 0
KEN1 141345Z 12011KT 19/14 A3026 RMK A01 T01920142  RH  073%=      5-min Rain = 0
KEN1 141346Z 12010KT 19/15 A3026 RMK A01 T01930145  RH  074%=      5-min Rain = 0
KEN1 141347Z 12012KT 19/15 A3026 RMK A01 T01930147  RH  075%=      5-min Rain = 0
KEN1 141348Z 12012KT 19/15 A3026 RMK A01 T01920146  RH  075%=      5-min Rain = 0
KEN1 141349Z 12011KT 19/15 A3026 RMK A01 T01920147  RH  075%=      5-min Rain = 0
KEN1 141350Z 12012KT 19/15 A3026 RMK A01 T01920147  RH  075%=      5-min Rain = 0
KEN1 141351Z 11011KT 19/15 A3026 RMK A01 T01920145  RH  074%=      5-min Rain = 0
KEN1 141352Z 12013KT 19/15 A3026 RMK A01 T01930148  RH  075%=      5-min Rain = 0
KEN1 141353Z 12013KT 20/15 A3026 RMK A01 T01950146  RH  073%=      5-min Rain = 0
KEN1 141354Z 12011KT 20/15 A3026 RMK A01 T01960147  RH  073%=      5-min Rain = 0
KEN1 141355Z 11011KT 20/15 A3026 RMK A01 T01970152  RH  075%=      5-min Rain = 0
KEN1 141356Z 11011KT 20/15 A3026 RMK A01 T01980149  RH  073%=      5-min Rain = 0
KEN1 141357Z 11011KT 20/15 A3026 RMK A01 T01990150  RH  073%=      5-min Rain = 0
KEN1 141358Z 11013KT 20/15 A3026 RMK A01 T02000146  RH  071%=      5-min Rain = 0
KEN1 141359Z 10012KT 20/14 A3027 RMK A01 T02000143  RH  070%=      5-min Rain = 0
KEN1 141400Z 11010KT 20/15 A3027 RMK A01 T02000147  RH  071%=      5-min Rain = 0
KEN1 141401Z 10011KT 20/15 A3027 RMK A01 T02010146  RH  070%=      5-min Rain = 0
KEN1 141402Z 10011KT 20/15 A3027 RMK A01 T02020145  RH  070%=      5-min Rain = 0
KEN1 141403Z 10009KT 20/15 A3027 RMK A01 T02030147  RH  070%=      5-min Rain = 0
KEN1 141404Z 10006KT 20/15 A3027 RMK A01 T02040148  RH  070%=      5-min Rain = 0
KEN1 141405Z 11009KT 21/15 A3027 RMK A01 T02050150  RH  071%=      5-min Rain = 0
KEN1 141406Z 12009KT 21/15 A3027 RMK A01 T02070146  RH  068%=      5-min Rain = 0
KEN1 141407Z 11008KT 21/15 A3028 RMK A01 T02070146  RH  068%=      5-min Rain = 0
KEN1 141408Z 12006KT 21/15 A3028 RMK A01 T02080150  RH  069%=      5-min Rain = 0
KEN1 141409Z 12006KT 21/15 A3028 RMK A01 T02090149  RH  068%=      5-min Rain = 0
KEN1 141410Z 12006KT 21/15 A3028 RMK A01 T02090146  RH  067%=      5-min Rain = 0
KEN1 141411Z 14005KT 21/15 A3028 RMK A01 T02080146  RH  067%=      5-min Rain = 0
KEN1 141412Z 13004KT 21/15 A3028 RMK A01 T02080145  RH  067%=      5-min Rain = 0
KEN1 141413Z 13003KT 21/15 A3028 RMK A01 T02070145  RH  068%=      5-min Rain = 0
KEN1 141414Z 15003KT 21/15 A3028 RMK A01 T02070147  RH  068%=      5-min Rain = 0
KEN1 141415Z 17003KT 21/15 A3028 RMK A01 T02070148  RH  069%=      5-min Rain = 0
KEN1 141416Z 18003KT 21/14 A3028 RMK A01 T02070144  RH  067%=      5-min Rain = 0
KEN1 141417Z 14001KT 21/15 A3028 RMK A01 T02070150  RH  070%=      5-min Rain = 0
KEN1 141418Z 09001KT 21/14 A3028 RMK A01 T02080143  RH  066%=      5-min Rain = 0
KEN1 141419Z 08000KT 21/15 A3028 RMK A01 T02080147  RH  068%=      5-min Rain = 0
KEN1 141420Z 02001KT 21/15 A3028 RMK A01 T02080148  RH  068%=      5-min Rain = 0
KEN1 141421Z 05004KT 21/15 A3029 RMK A01 T02080146  RH  067%=      5-min Rain = 0
KEN1 141422Z 04004KT 21/15 A3029 RMK A01 T02090151  RH  069%=      5-min Rain = 0
KEN1 141423Z 04006KT 21/15 A3029 RMK A01 T02090152  RH  070%=      5-min Rain = 0
KEN1 141424Z 03007KT 21/16 A3029 RMK A01 T02090155  RH  071%=      5-min Rain = 0
KEN1 141425Z 01007KT 21/16 A3029 RMK A01 T02090155  RH  071%=      5-min Rain = 0
KEN1 141426Z 02008KT 21/16 A3029 RMK A01 T02080156  RH  072%=      5-min Rain = 0
KEN1 141427Z 02011KT 21/16 A3029 RMK A01 T02070156  RH  073%=      5-min Rain = 0
KEN1 141428Z 02011KT 21/15 A3029 RMK A01 T02050153  RH  072%=      5-min Rain = 0
KEN1 141429Z 02008KT 21/15 A3029 RMK A01 T02050154  RH  073%=      5-min Rain = 0
KEN1 141430Z 02009KT 21/16 A3029 RMK A01 T02060156  RH  073%=      5-min Rain = 0
KEN1 141431Z 02007KT 21/16 A3029 RMK A01 T02060155  RH  073%=      5-min Rain = 0
KEN1 141432Z 03006KT 21/15 A3029 RMK A01 T02060154  RH  072%=      5-min Rain = 0
KEN1 141433Z 03006KT 21/16 A3029 RMK A01 T02060155  RH  072%=      5-min Rain = 0
KEN1 141434Z 02006KT 21/16 A303 RMK A01 T02070158  RH  074%=      5-min Rain = 0
KEN1 141435Z 02008KT 21/16 A303 RMK A01 T02070159  RH  074%=      5-min Rain = 0
KEN1 141436Z 01008KT 21/16 A303 RMK A01 T02090161  RH  074%=      5-min Rain = 0
KEN1 141437Z 01010KT 21/16 A303 RMK A01 T02110160  RH  073%=      5-min Rain = 0
KEN1 141438Z 01008KT 21/16 A303 RMK A01 T02120157  RH  071%=      5-min Rain = 0
KEN1 141439Z 00008KT 21/16 A303 RMK A01 T02120158  RH  071%=      5-min Rain = 0
KEN1 141440Z 36007KT 21/15 A303 RMK A01 T02130152  RH  068%=      5-min Rain = 0
KEN1 141441Z 00006KT 21/15 A303 RMK A01 T02120151  RH  068%=      5-min Rain = 0
KEN1 141442Z 35005KT 21/16 A303 RMK A01 T02120155  RH  070%=      5-min Rain = 0
KEN1 141443Z 36008KT 21/16 A303 RMK A01 T02120155  RH  070%=      5-min Rain = 0
KEN1 141444Z 00008KT 21/15 A303 RMK A01 T02120153  RH  069%=      5-min Rain = 0
KEN1 141445Z 36010KT 21/16 A303 RMK A01 T02120157  RH  071%=      5-min Rain = 0
KEN1 141446Z 36009KT 21/15 A303 RMK A01 T02120153  RH  069%=      5-min Rain = 0
KEN1 141447Z 36007KT 21/15 A303 RMK A01 T02110152  RH  069%=      5-min Rain = 0
KEN1 141448Z 36008KT 21/15 A303 RMK A01 T02120153  RH  069%=      5-min Rain = 0
KEN1 141449Z 35009KT 21/15 A303 RMK A01 T02130151  RH  068%=      5-min Rain = 0
KEN1 141450Z 35009KT 21/15 A303 RMK A01 T02130150  RH  068%=      5-min Rain = 0
KEN1 141451Z 00007KT 21/15 A303 RMK A01 T02120151  RH  068%=      5-min Rain = 0
KEN1 141452Z 36006KT 21/16 A303 RMK A01 T02110155  RH  070%=      5-min Rain = 0
KEN1 141453Z 35007KT 21/16 A303 RMK A01 T02120155  RH  070%=      5-min Rain = 0
KEN1 141454Z 35008KT 21/15 A303 RMK A01 T02120154  RH  069%=      5-min Rain = 0
KEN1 141455Z 35007KT 21/15 A303 RMK A01 T02120154  RH  070%=      5-min Rain = 0
KEN1 141456Z 35008KT 21/15 A303 RMK A01 T02120154  RH  070%=      5-min Rain = 0
KEN1 141457Z 35007KT 21/15 A3029 RMK A01 T02120153  RH  069%=      5-min Rain = 0
KEN1 141458Z 35006KT 21/15 A3029 RMK A01 T02120152  RH  069%=      5-min Rain = 0
KEN1 141459Z 35005KT 21/15 A3029 RMK A01 T02120153  RH  069%=      5-min Rain = 0
KEN1 141500Z 35005KT 21/16 A3029 RMK A01 T02120155  RH  070%=      5-min Rain = 0
KEN1 141501Z 34005KT 21/15 A303 RMK A01 T02140153  RH  068%=      5-min Rain = 0
KEN1 141502Z 34005KT 22/16 A303 RMK A01 T02150155  RH  069%=      5-min Rain = 0
KEN1 141503Z 33006KT 22/16 A303 RMK A01 T02150155  RH  068%=      5-min Rain = 0
KEN1 141504Z 32006KT 22/16 A303 RMK A01 T02160155  RH  068%=      5-min Rain = 0
KEN1 141505Z 31006KT 22/15 A303 RMK A01 T02160154  RH  068%=      5-min Rain = 0
KEN1 141506Z 30005KT 22/15 A303 RMK A01 T02160154  RH  068%=      5-min Rain = 0
KEN1 141507Z 31005KT 22/16 A303 RMK A01 T02160156  RH  068%=      5-min Rain = 0
KEN1 141508Z 32005KT 22/16 A303 RMK A01 T02180156  RH  068%=      5-min Rain = 0
KEN1 141509Z 33004KT 22/16 A303 RMK A01 T02180157  RH  068%=      5-min Rain = 0
KEN1 141510Z 34005KT 22/16 A303 RMK A01 T02180159  RH  069%=      5-min Rain = 0
KEN1 141511Z 35007KT 22/16 A303 RMK A01 T02190156  RH  068%=      5-min Rain = 0
KEN1 141512Z 35005KT 22/15 A303 RMK A01 T02180151  RH  066%=      5-min Rain = 0
KEN1 141513Z 35007KT 22/15 A303 RMK A01 T02170153  RH  067%=      5-min Rain = 0
KEN1 141514Z 34006KT 22/16 A303 RMK A01 T02160155  RH  068%=      5-min Rain = 0
KEN1 141515Z 36007KT 22/16 A303 RMK A01 T02170155  RH  068%=      5-min Rain = 0
KEN1 141516Z 01006KT 22/15 A303 RMK A01 T02180152  RH  066%=      5-min Rain = 0
KEN1 141517Z 36007KT 22/15 A303 RMK A01 T02170152  RH  066%=      5-min Rain = 0
KEN1 141518Z 00005KT 22/16 A303 RMK A01 T02180155  RH  067%=      5-min Rain = 0
KEN1 141519Z 02007KT 22/16 A303 RMK A01 T02210156  RH  066%=      5-min Rain = 0
KEN1 141520Z 01006KT 22/15 A303 RMK A01 T02230153  RH  065%=      5-min Rain = 0
KEN1 141521Z 02006KT 22/15 A303 RMK A01 T02240154  RH  064%=      5-min Rain = 0
KEN1 141522Z 01006KT 23/15 A303 RMK A01 T02250153  RH  063%=      5-min Rain = 0
KEN1 141523Z 01007KT 23/15 A3031 RMK A01 T02250154  RH  064%=      5-min Rain = 0
KEN1 141524Z 01007KT 22/15 A3031 RMK A01 T02240153  RH  064%=      5-min Rain = 0
KEN1 141525Z 01007KT 23/16 A3031 RMK A01 T02250157  RH  065%=      5-min Rain = 0
KEN1 141526Z 36008KT 23/16 A3031 RMK A01 T02290157  RH  064%=      5-min Rain = 0
KEN1 141527Z 01010KT 23/16 A3031 RMK A01 T02280159  RH  065%=      5-min Rain = 0
KEN1 141528Z 36011KT 23/17 A3031 RMK A01 T02280166  RH  068%=      5-min Rain = 0
KEN1 141529Z 36011KT 23/16 A3031 RMK A01 T02270163  RH  067%=      5-min Rain = 0
KEN1 141530Z 36012KT 23/17 A3031 RMK A01 T02250165  RH  069%=      5-min Rain = 0
KEN1 141531Z 35012KT 22/16 A3031 RMK A01 T02240164  RH  069%=      5-min Rain = 0
KEN1 141532Z 35009KT 22/16 A3031 RMK A01 T02210163  RH  069%=      5-min Rain = 0
KEN1 141533Z 35011KT 22/17 A3031 RMK A01 T02210165  RH  070%=      5-min Rain = 0
KEN1 141534Z 35013KT 22/17 A3031 RMK A01 T02220165  RH  070%=      5-min Rain = 0
KEN1 141535Z 36012KT 22/16 A3031 RMK A01 T02210163  RH  070%=      5-min Rain = 0
KEN1 141536Z 36011KT 22/16 A3031 RMK A01 T02190164  RH  071%=      5-min Rain = 0
KEN1 141537Z 36012KT 22/16 A3031 RMK A01 T02180163  RH  071%=      5-min Rain = 0
KEN1 141538Z 35012KT 22/17 A3031 RMK A01 T02170166  RH  073%=      5-min Rain = 0
KEN1 141539Z 00013KT 22/16 A3031 RMK A01 T02170164  RH  072%=      5-min Rain = 0
KEN1 141540Z 36013KT 22/16 A3031 RMK A01 T02150163  RH  072%=      5-min Rain = 0
KEN1 141541Z 36013KT 22/17 A3032 RMK A01 T02150165  RH  073%=      5-min Rain = 0
KEN1 141542Z 35015KT 22/16 A3032 RMK A01 T02150162  RH  072%=      5-min Rain = 0
KEN1 141543Z 34013KT 22/16 A3032 RMK A01 T02150163  RH  072%=      5-min Rain = 0
KEN1 141544Z 34012KT 21/16 A3032 RMK A01 T02140162  RH  072%=      5-min Rain = 0
KEN1 141545Z 34012G17KT 21/16 A3032 RMK A01 T02140163  RH  073%=      5-min Rain = 0
KEN1 141546Z 35015KT 22/16 A3032 RMK A01 T02150162  RH  072%=      5-min Rain = 0
KEN1 141547Z 35012KT 21/16 A3032 RMK A01 T02140160  RH  071%=      5-min Rain = 0
KEN1 141548Z 36014KT 21/16 A3032 RMK A01 T02140162  RH  072%=      5-min Rain = 0
KEN1 141549Z 35014KT 21/16 A3032 RMK A01 T02140162  RH  072%=      5-min Rain = 0
KEN1 141550Z 36013KT 21/16 A3032 RMK A01 T02130164  RH  073%=      5-min Rain = 0
KEN1 141551Z 00013KT 22/16 A3032 RMK A01 T02150162  RH  072%=      5-min Rain = 0
KEN1 141552Z 36014KT 22/16 A3032 RMK A01 T02150163  RH  072%=      5-min Rain = 0
KEN1 141553Z 35014KT 22/16 A3032 RMK A01 T02150163  RH  072%=      5-min Rain = 0
KEN1 141554Z 35011KT 22/17 A3032 RMK A01 T02150165  RH  073%=      5-min Rain = 0
KEN1 141555Z 00013KT 22/16 A3032 RMK A01 T02170164  RH  072%=      5-min Rain = 0
KEN1 141556Z 00011KT 22/16 A3032 RMK A01 T02150161  RH  071%=      5-min Rain = 0
KEN1 141557Z 36010KT 22/17 A3032 RMK A01 T02150165  RH  073%=      5-min Rain = 0
KEN1 141558Z 35011KT 22/17 A3032 RMK A01 T02160165  RH  073%=      5-min Rain = 0
KEN1 141559Z 00012KT 22/16 A3032 RMK A01 T02170163  RH  071%=      5-min Rain = 0
KEN1 141600Z 35014KT 22/16 A3032 RMK A01 T02160163  RH  071%=      5-min Rain = 0
KEN1 141601Z 35013KT 22/16 A3032 RMK A01 T02150164  RH  073%=      5-min Rain = 0
KEN1 141602Z 36012KT 21/17 A3032 RMK A01 T02140165  RH  073%=      5-min Rain = 0
KEN1 141603Z 35012KT 21/17 A3033 RMK A01 T02140166  RH  074%=      5-min Rain = 0
KEN1 141604Z 35010KT 21/17 A3033 RMK A01 T02140165  RH  074%=      5-min Rain = 0
KEN1 141605Z 36012KT 21/17 A3033 RMK A01 T02140166  RH  074%=      5-min Rain = 0
KEN1 141606Z 00011KT 22/17 A3033 RMK A01 T02150168  RH  074%=      5-min Rain = 0
KEN1 141607Z 36012KT 22/16 A3033 RMK A01 T02160163  RH  072%=      5-min Rain = 0
KEN1 141608Z 36013KT 22/17 A3033 RMK A01 T02160165  RH  073%=      5-min Rain = 0
KEN1 141609Z 35014KT 22/16 A3033 RMK A01 T02160163  RH  072%=      5-min Rain = 0
KEN1 141610Z 35012KT 21/16 A3033 RMK A01 T02140161  RH  071%=      5-min Rain = 0
KEN1 141611Z 01011KT 21/16 A3033 RMK A01 T02130163  RH  073%=      5-min Rain = 0
KEN1 141612Z 00011KT 21/16 A3033 RMK A01 T02140161  RH  072%=      5-min Rain = 0
KEN1 141613Z 00015KT 22/16 A3033 RMK A01 T02150161  RH  071%=      5-min Rain = 0
KEN1 141614Z 35014KT 22/16 A3033 RMK A01 T02160159  RH  070%=      5-min Rain = 0
KEN1 141615Z 36013KT 22/16 A3033 RMK A01 T02160160  RH  070%=      5-min Rain = 0
KEN1 141616Z 36011KT 22/16 A3033 RMK A01 T02170164  RH  072%=      5-min Rain = 0
KEN1 141617Z 00013KT 22/16 A3033 RMK A01 T02190161  RH  070%=      5-min Rain = 0
KEN1 141618Z 35013KT 22/16 A3033 RMK A01 T02180160  RH  070%=      5-min Rain = 0
KEN1 141619Z 35012KT 22/16 A3033 RMK A01 T02160158  RH  069%=      5-min Rain = 0
KEN1 141620Z 34014KT 22/16 A3033 RMK A01 T02150159  RH  071%=      5-min Rain = 0
KEN1 141621Z 34014KT 21/16 A3033 RMK A01 T02140158  RH  070%=      5-min Rain = 0
KEN1 141622Z 35013KT 21/16 A3033 RMK A01 T02140158  RH  071%=      5-min Rain = 0
KEN1 141623Z 35011KT 21/16 A3033 RMK A01 T02140158  RH  071%=      5-min Rain = 0
KEN1 141624Z 34010KT 21/16 A3033 RMK A01 T02140162  RH  072%=      5-min Rain = 0
KEN1 141625Z 35011KT 22/16 A3033 RMK A01 T02170164  RH  072%=      5-min Rain = 0
KEN1 141626Z 35013KT 22/17 A3033 RMK A01 T02180165  RH  071%=      5-min Rain = 0
KEN1 141627Z 34012KT 22/16 A3033 RMK A01 T02180163  RH  071%=      5-min Rain = 0
KEN1 141628Z 36011KT 22/16 A3033 RMK A01 T02180163  RH  071%=      5-min Rain = 0
KEN1 141629Z 36012KT 22/16 A3033 RMK A01 T02180161  RH  070%=      5-min Rain = 0
KEN1 141630Z 36011KT 22/16 A3033 RMK A01 T02190157  RH  068%=      5-min Rain = 0
KEN1 141631Z 35012KT 22/16 A3033 RMK A01 T02190158  RH  068%=      5-min Rain = 0
KEN1 141632Z 35010KT 22/16 A3033 RMK A01 T02180162  RH  070%=      5-min Rain = 0
KEN1 141633Z 35010KT 22/16 A3033 RMK A01 T02180160  RH  070%=      5-min Rain = 0
KEN1 141634Z 34011KT 22/16 A3033 RMK A01 T02200164  RH  070%=      5-min Rain = 0
KEN1 141635Z 35011KT 22/16 A3033 RMK A01 T02200162  RH  070%=      5-min Rain = 0
KEN1 141636Z 36013KT 22/16 A3033 RMK A01 T02210162  RH  069%=      5-min Rain = 0
KEN1 141637Z 34011KT 22/16 A3033 RMK A01 T02210162  RH  069%=      5-min Rain = 0
KEN1 141638Z 35013KT 22/16 A3033 RMK A01 T02220159  RH  068%=      5-min Rain = 0
KEN1 141639Z 35014KT 22/16 A3033 RMK A01 T02220158  RH  067%=      5-min Rain = 0
KEN1 141640Z 35013G18KT 22/16 A3033 RMK A01 T02210158  RH  067%=      5-min Rain = 0
KEN1 141641Z 36013KT 22/16 A3034 RMK A01 T02210158  RH  067%=      5-min Rain = 0
KEN1 141642Z 00012KT 22/16 A3034 RMK A01 T02220158  RH  067%=      5-min Rain = 0
KEN1 141643Z 00011KT 22/16 A3034 RMK A01 T02220157  RH  067%=      5-min Rain = 0
KEN1 141644Z 35012KT 22/16 A3034 RMK A01 T02220159  RH  067%=      5-min Rain = 0
KEN1 141645Z 36012KT 22/16 A3034 RMK A01 T02230156  RH  066%=      5-min Rain = 0
KEN1 141646Z 01013KT 22/16 A3034 RMK A01 T02230159  RH  067%=      5-min Rain = 0
KEN1 141647Z 00010KT 23/16 A3034 RMK A01 T02250158  RH  066%=      5-min Rain = 0
KEN1 141648Z 01009KT 23/16 A3033 RMK A01 T02250158  RH  066%=      5-min Rain = 0
KEN1 141649Z 01009KT 23/16 A3033 RMK A01 T02250157  RH  066%=      5-min Rain = 0
KEN1 141650Z 01009KT 23/16 A3033 RMK A01 T02260160  RH  066%=      5-min Rain = 0
KEN1 141651Z 01010KT 23/16 A3033 RMK A01 T02270158  RH  065%=      5-min Rain = 0
KEN1 141652Z 01013KT 23/16 A3033 RMK A01 T02270155  RH  064%=      5-min Rain = 0
KEN1 141653Z 01012KT 23/16 A3033 RMK A01 T02270158  RH  065%=      5-min Rain = 0
KEN1 141654Z 01013KT 23/16 A3033 RMK A01 T02260160  RH  066%=      5-min Rain = 0
KEN1 141655Z 02013KT 23/16 A3033 RMK A01 T02260162  RH  067%=      5-min Rain = 0
KEN1 141656Z 01014KT 23/16 A3033 RMK A01 T02250159  RH  066%=      5-min Rain = 0
KEN1 141657Z 01013KT 22/16 A3033 RMK A01 T02240160  RH  067%=      5-min Rain = 0
KEN1 141658Z 00012KT 22/16 A3033 RMK A01 T02240161  RH  068%=      5-min Rain = 0
KEN1 141659Z 00014KT 22/16 A3033 RMK A01 T02240161  RH  068%=      5-min Rain = 0
KEN1 141700Z 01013KT 22/16 A3033 RMK A01 T02240162  RH  068%=      5-min Rain = 0
KEN1 141701Z 02014KT 22/16 A3033 RMK A01 T02240158  RH  066%=      5-min Rain = 0
KEN1 141702Z 02014KT 22/16 A3033 RMK A01 T02240160  RH  067%=      5-min Rain = 0
KEN1 141703Z 02014KT 22/16 A3033 RMK A01 T02240160  RH  067%=      5-min Rain = 0
KEN1 141704Z 02014KT 22/16 A3033 RMK A01 T02240162  RH  068%=      5-min Rain = 0
KEN1 141705Z 01013KT 23/16 A3033 RMK A01 T02260164  RH  068%=      5-min Rain = 0
KEN1 141706Z 01016KT 23/16 A3033 RMK A01 T02270163  RH  067%=      5-min Rain = 0
KEN1 141707Z 01014KT 23/17 A3033 RMK A01 T02280165  RH  068%=      5-min Rain = 0
KEN1 141708Z 02015KT 23/17 A3033 RMK A01 T02300166  RH  067%=      5-min Rain = 0
KEN1 141709Z 02015KT 23/16 A3033 RMK A01 T02310160  RH  064%=      5-min Rain = 0
KEN1 141710Z 02013KT 23/16 A3033 RMK A01 T02310160  RH  064%=      5-min Rain = 0
KEN1 141711Z 02016KT 23/16 A3033 RMK A01 T02340163  RH  065%=      5-min Rain = 0
KEN1 141712Z 03014KT 23/16 A3033 RMK A01 T02340160  RH  063%=      5-min Rain = 0
KEN1 141713Z 02014KT 23/16 A3033 RMK A01 T02320159  RH  064%=      5-min Rain = 0
KEN1 141714Z 02013KT 23/16 A3033 RMK A01 T02300158  RH  064%=      5-min Rain = 0
KEN1 141715Z 01015KT 23/16 A3033 RMK A01 T02300158  RH  064%=      5-min Rain = 0
KEN1 141716Z 03016KT 23/16 A3033 RMK A01 T02310160  RH  064%=      5-min Rain = 0
KEN1 141717Z 03015KT 23/16 A3033 RMK A01 T02320156  RH  062%=      5-min Rain = 0
KEN1 141718Z 02015KT 23/16 A3033 RMK A01 T02310157  RH  063%=      5-min Rain = 0
KEN1 141719Z 02015KT 23/16 A3033 RMK A01 T02310159  RH  064%=      5-min Rain = 0
KEN1 141720Z 02014KT 23/16 A3033 RMK A01 T02310163  RH  065%=      5-min Rain = 0
KEN1 141721Z 03010KT 23/16 A3033 RMK A01 T02340162  RH  064%=      5-min Rain = 0
KEN1 141722Z 03012KT 24/17 A3033 RMK A01 T02370165  RH  064%=      5-min Rain = 0
KEN1 141723Z 01012G17KT 24/16 A3033 RMK A01 T02380164  RH  063%=      5-min Rain = 0
KEN1 141724Z 02012KT 24/16 A3033 RMK A01 T02350161  RH  063%=      5-min Rain = 0
KEN1 141725Z 01013KT 24/16 A3033 RMK A01 T02350163  RH  064%=      5-min Rain = 0
KEN1 141726Z 01013KT 24/16 A3033 RMK A01 T02350160  RH  063%=      5-min Rain = 0
KEN1 141727Z 01011KT 23/16 A3033 RMK A01 T02330162  RH  064%=      5-min Rain = 0
KEN1 141728Z 02014KT 23/16 A3033 RMK A01 T02330159  RH  063%=      5-min Rain = 0
KEN1 141729Z 02014KT 23/16 A3032 RMK A01 T02320161  RH  064%=      5-min Rain = 0
KEN1 141730Z 02013KT 23/16 A3032 RMK A01 T02310158  RH  064%=      5-min Rain = 0
KEN1 141731Z 02011KT 23/16 A3032 RMK A01 T02300162  RH  065%=      5-min Rain = 0
KEN1 141732Z 01012KT 23/16 A3032 RMK A01 T02330164  RH  065%=      5-min Rain = 0
KEN1 141733Z 01010KT 23/16 A3032 RMK A01 T02330162  RH  064%=      5-min Rain = 0
KEN1 141734Z 02009KT 23/16 A3032 RMK A01 T02320161  RH  064%=      5-min Rain = 0
KEN1 141735Z 02012KT 23/16 A3032 RMK A01 T02310161  RH  064%=      5-min Rain = 0
KEN1 141736Z 02009KT 23/16 A3032 RMK A01 T02280158  RH  065%=      5-min Rain = 0
KEN1 141737Z 00010KT 23/16 A3032 RMK A01 T02260157  RH  065%=      5-min Rain = 0
KEN1 141738Z 02009KT 23/16 A3032 RMK A01 T02250160  RH  067%=      5-min Rain = 0
KEN1 141739Z 01008KT 23/16 A3032 RMK A01 T02270164  RH  068%=      5-min Rain = 0
KEN1 141740Z 01009KT 23/16 A3032 RMK A01 T02290162  RH  066%=      5-min Rain = 0
KEN1 141741Z 02008KT 23/16 A3032 RMK A01 T02270157  RH  064%=      5-min Rain = 0
KEN1 141742Z 02009KT 23/16 A3032 RMK A01 T02250157  RH  065%=      5-min Rain = 0
KEN1 141743Z 01004KT 22/16 A3032 RMK A01 T02240159  RH  067%=      5-min Rain = 0
KEN1 141744Z 36008KT 22/16 A3032 RMK A01 T02230161  RH  068%=      5-min Rain = 0
KEN1 141745Z 02007KT 22/16 A3032 RMK A01 T02240159  RH  066%=      5-min Rain = 0
KEN1 141746Z 36006KT 22/16 A3032 RMK A01 T02240158  RH  066%=      5-min Rain = 0
KEN1 141747Z 00007KT 22/16 A3032 RMK A01 T02230159  RH  067%=      5-min Rain = 0
KEN1 141748Z 01008KT 22/16 A3031 RMK A01 T02240159  RH  067%=      5-min Rain = 0
KEN1 141749Z 02008KT 23/16 A3031 RMK A01 T02250160  RH  067%=      5-min Rain = 0
KEN1 141750Z 02008KT 23/16 A3031 RMK A01 T02250160  RH  067%=      5-min Rain = 0
KEN1 141751Z 03006KT 22/16 A3031 RMK A01 T02230157  RH  066%=      5-min Rain = 0
KEN1 141752Z 03006KT 22/16 A3031 RMK A01 T02230155  RH  065%=      5-min Rain = 0
KEN1 141753Z 05009KT 22/15 A3031 RMK A01 T02240153  RH  064%=      5-min Rain = 0
KEN1 141754Z 05007KT 22/15 A3031 RMK A01 T02240154  RH  064%=      5-min Rain = 0
KEN1 141755Z 06006KT 23/16 A3031 RMK A01 T02250157  RH  065%=      5-min Rain = 0
KEN1 141756Z 05007KT 23/16 A3031 RMK A01 T02270155  RH  064%=      5-min Rain = 0
KEN1 141757Z 04007KT 23/16 A3031 RMK A01 T02260157  RH  065%=      5-min Rain = 0
KEN1 141758Z 05008KT 23/16 A3031 RMK A01 T02260156  RH  065%=      5-min Rain = 0
KEN1 141759Z 06008KT 23/15 A3031 RMK A01 T02260154  RH  063%=      5-min Rain = 0
KEN1 141800Z 06006KT 23/15 A303 RMK A01 T02290153  RH  062%=      5-min Rain = 0
KEN1 141801Z 04006KT 23/16 A303 RMK A01 T02300156  RH  063%=      5-min Rain = 0
KEN1 141802Z 03007KT 23/15 A303 RMK A01 T02300153  RH  062%=      5-min Rain = 0
KEN1 141803Z 03005KT 23/16 A303 RMK A01 T02290155  RH  063%=      5-min Rain = 0
KEN1 141804Z 07005KT 23/16 A303 RMK A01 T02280157  RH  064%=      5-min Rain = 0
KEN1 141805Z 05003KT 23/16 A303 RMK A01 T02290156  RH  063%=      5-min Rain = 0
KEN1 141806Z 02001KT 23/16 A303 RMK A01 T02290156  RH  063%=      5-min Rain = 0
KEN1 141807Z 04001KT 23/15 A303 RMK A01 T02290152  RH  062%=      5-min Rain = 0
KEN1 141808Z 01003KT 23/16 A303 RMK A01 T02290156  RH  063%=      5-min Rain = 0
KEN1 141809Z 35004KT 23/16 A303 RMK A01 T02290156  RH  064%=      5-min Rain = 0
KEN1 141810Z 34004KT 23/16 A303 RMK A01 T02280157  RH  064%=      5-min Rain = 0
KEN1 141811Z 34006KT 23/15 A303 RMK A01 T02280154  RH  063%=      5-min Rain = 0
KEN1 141812Z 02004KT 23/16 A303 RMK A01 T02290157  RH  064%=      5-min Rain = 0
KEN1 141813Z 05005KT 23/16 A303 RMK A01 T02310155  RH  062%=      5-min Rain = 0
KEN1 141814Z 06002KT 23/15 A303 RMK A01 T02330150  RH  060%=      5-min Rain = 0
KEN1 141815Z 35004KT 23/15 A303 RMK A01 T02330153  RH  061%=      5-min Rain = 0
KEN1 141816Z 34004KT 23/15 A303 RMK A01 T02320149  RH  060%=      5-min Rain = 0
KEN1 141817Z 35002KT 23/15 A3029 RMK A01 T02300149  RH  060%=      5-min Rain = 0
KEN1 141818Z 01002KT 23/15 A3029 RMK A01 T02300152  RH  062%=      5-min Rain = 0
KEN1 141819Z 04004KT 23/16 A3029 RMK A01 T02310157  RH  063%=      5-min Rain = 0
KEN1 141820Z 06001KT 23/15 A3029 RMK A01 T02330151  RH  060%=      5-min Rain = 0
KEN1 141821Z 08001KT 23/15 A3029 RMK A01 T02330151  RH  060%=      5-min Rain = 0
KEN1 141822Z 03002KT 23/16 A3029 RMK A01 T02340156  RH  062%=      5-min Rain = 0
KEN1 141823Z 01003KT 24/16 A3029 RMK A01 T02360155  RH  061%=      5-min Rain = 0
KEN1 141824Z 35002KT 24/16 A3029 RMK A01 T02360156  RH  061%=      5-min Rain = 0
KEN1 141825Z 31002KT 24/16 A3029 RMK A01 T02360156  RH  061%=      5-min Rain = 0
KEN1 141826Z 30002KT 24/16 A3029 RMK A01 T02360159  RH  062%=      5-min Rain = 0
KEN1 141827Z 32002KT 24/16 A3029 RMK A01 T02390163  RH  062%=      5-min Rain = 0
KEN1 141828Z 34001KT 24/16 A3029 RMK A01 T02400158  RH  060%=      5-min Rain = 0
KEN1 141829Z 27001KT 24/16 A3029 RMK A01 T02410161  RH  061%=      5-min Rain = 0
KEN1 141830Z 25001KT 24/16 A3029 RMK A01 T02430161  RH  060%=      5-min Rain = 0
KEN1 141831Z 33003KT 24/16 A3029 RMK A01 T02440159  RH  059%=      5-min Rain = 0
KEN1 141832Z 35003KT 24/16 A3029 RMK A01 T02440158  RH  059%=      5-min Rain = 0
KEN1 141833Z 33003KT 24/16 A3029 RMK A01 T02430160  RH  060%=      5-min Rain = 0
KEN1 141834Z 33004KT 24/16 A3029 RMK A01 T02420161  RH  061%=      5-min Rain = 0
KEN1 141835Z 30004KT 24/17 A3029 RMK A01 T02430165  RH  062%=      5-min Rain = 0
KEN1 141836Z 32007KT 24/16 A3029 RMK A01 T02440163  RH  061%=      5-min Rain = 0
KEN1 141837Z 32005KT 24/16 A3029 RMK A01 T02430161  RH  060%=      5-min Rain = 0
KEN1 141838Z 30006KT 24/16 A3029 RMK A01 T02420164  RH  062%=      5-min Rain = 0
KEN1 141839Z 31005KT 24/16 A3029 RMK A01 T02410159  RH  060%=      5-min Rain = 0
KEN1 141840Z 32006KT 24/17 A3029 RMK A01 T02410167  RH  063%=      5-min Rain = 0
KEN1 141841Z 33004KT 24/16 A3029 RMK A01 T02430159  RH  059%=      5-min Rain = 0
KEN1 141842Z 31006KT 24/16 A3029 RMK A01 T02430159  RH  060%=      5-min Rain = 0
KEN1 141843Z 30003KT 24/15 A3029 RMK A01 T02420154  RH  058%=      5-min Rain = 0
KEN1 141844Z 32005KT 24/16 A3028 RMK A01 T02410159  RH  060%=      5-min Rain = 0
KEN1 141845Z 29005KT 24/16 A3028 RMK A01 T02410155  RH  058%=      5-min Rain = 0
KEN1 141846Z 29005KT 24/16 A3028 RMK A01 T02420162  RH  061%=      5-min Rain = 0
KEN1 141847Z 29004KT 24/15 A3028 RMK A01 T02430154  RH  057%=      5-min Rain = 0
KEN1 141848Z 29003KT 24/16 A3028 RMK A01 T02420158  RH  060%=      5-min Rain = 0
KEN1 141849Z 33003KT 24/16 A3028 RMK A01 T02430156  RH  059%=      5-min Rain = 0
KEN1 141850Z 30004KT 24/16 A3028 RMK A01 T02430160  RH  060%=      5-min Rain = 0
KEN1 141851Z 27004KT 24/16 A3028 RMK A01 T02440158  RH  059%=      5-min Rain = 0
KEN1 141852Z 27004KT 24/16 A3028 RMK A01 T02440158  RH  059%=      5-min Rain = 0
KEN1 141853Z 28005KT 25/16 A3028 RMK A01 T02450162  RH  060%=      5-min Rain = 0
KEN1 141854Z 29003KT 25/16 A3028 RMK A01 T02470161  RH  059%=      5-min Rain = 0
KEN1 141855Z 29004KT 25/16 A3028 RMK A01 T02480155  RH  056%=      5-min Rain = 0
KEN1 141856Z 29005KT 25/16 A3028 RMK A01 T02470158  RH  058%=      5-min Rain = 0
KEN1 141857Z 28003KT 25/15 A3027 RMK A01 T02460149  RH  055%=      5-min Rain = 0
KEN1 141858Z 34003KT 24/16 A3027 RMK A01 T02440156  RH  058%=      5-min Rain = 0
KEN1 141859Z 29004KT 25/16 A3027 RMK A01 T02450156  RH  057%=      5-min Rain = 0
KEN1 141900Z 27002KT 25/15 A3027 RMK A01 T02470150  RH  055%=      5-min Rain = 0
KEN1 141901Z 27002KT 25/16 A3027 RMK A01 T02470155  RH  056%=      5-min Rain = 0
KEN1 141902Z 29004KT 25/15 A3027 RMK A01 T02480154  RH  056%=      5-min Rain = 0
KEN1 141903Z 28003KT 25/15 A3027 RMK A01 T02490150  RH  054%=      5-min Rain = 0
KEN1 141904Z 27001KT 25/14 A3027 RMK A01 T02480143  RH  052%=      5-min Rain = 0
KEN1 141905Z 25003KT 25/15 A3027 RMK A01 T02470150  RH  054%=      5-min Rain = 0
KEN1 141906Z 28003KT 25/16 A3027 RMK A01 T02490155  RH  056%=      5-min Rain = 0
KEN1 141907Z 30006KT 25/15 A3027 RMK A01 T02510154  RH  055%=      5-min Rain = 0
KEN1 141908Z 29006KT 25/15 A3027 RMK A01 T02510153  RH  054%=      5-min Rain = 0
KEN1 141909Z 27003KT 25/15 A3027 RMK A01 T02500150  RH  054%=      5-min Rain = 0
KEN1 141910Z 28003KT 25/15 A3027 RMK A01 T02500151  RH  054%=      5-min Rain = 0
KEN1 141911Z 27003KT 25/15 A3027 RMK A01 T02510154  RH  055%=      5-min Rain = 0
KEN1 141912Z 28002KT 25/15 A3027 RMK A01 T02510152  RH  054%=      5-min Rain = 0
KEN1 141913Z 27003KT 25/15 A3027 RMK A01 T02520152  RH  054%=      5-min Rain = 0
KEN1 141914Z 24002KT 25/15 A3027 RMK A01 T02510153  RH  055%=      5-min Rain = 0
KEN1 141915Z 12001KT 25/15 A3026 RMK A01 T02500154  RH  055%=      5-min Rain = 0
KEN1 141916Z 09000KT 25/16 A3026 RMK A01 T02510157  RH  056%=      5-min Rain = 0
KEN1 141917Z 25004KT 25/16 A3026 RMK A01 T02540161  RH  056%=      5-min Rain = 0
KEN1 141918Z 25005KT 26/16 A3026 RMK A01 T02560156  RH  054%=      5-min Rain = 0
KEN1 141919Z 23003KT 26/15 A3026 RMK A01 T02560151  RH  052%=      5-min Rain = 0
KEN1 141920Z 24002KT 26/15 A3026 RMK A01 T02550153  RH  053%=      5-min Rain = 0
KEN1 141921Z 28002KT 26/16 A3026 RMK A01 T02560157  RH  054%=      5-min Rain = 0
KEN1 141922Z 31004KT 26/16 A3026 RMK A01 T02580157  RH  054%=      5-min Rain = 0
KEN1 141923Z 30003KT 26/16 A3026 RMK A01 T02590158  RH  054%=      5-min Rain = 0
KEN1 141924Z 31004KT 26/15 A3026 RMK A01 T02600154  RH  052%=      5-min Rain = 0
KEN1 141925Z 31003KT 26/15 A3026 RMK A01 T02580152  RH  052%=      5-min Rain = 0
KEN1 141926Z 29001KT 26/15 A3026 RMK A01 T02570151  RH  052%=      5-min Rain = 0
KEN1 141927Z 28003KT 26/16 A3026 RMK A01 T02570157  RH  054%=      5-min Rain = 0
KEN1 141928Z 27004KT 26/16 A3026 RMK A01 T02590157  RH  054%=      5-min Rain = 0
KEN1 141929Z 25003KT 26/16 A3026 RMK A01 T02600155  RH  052%=      5-min Rain = 0
KEN1 141930Z 24002KT 26/15 A3026 RMK A01 T02600151  RH  051%=      5-min Rain = 0
KEN1 141931Z 25002KT 26/15 A3026 RMK A01 T02590154  RH  052%=      5-min Rain = 0
KEN1 141932Z 26003KT 26/16 A3026 RMK A01 T02610158  RH  053%=      5-min Rain = 0
KEN1 141933Z 24001KT 26/15 A3026 RMK A01 T02620154  RH  051%=      5-min Rain = 0
KEN1 141934Z 28001KT 26/16 A3025 RMK A01 T02620158  RH  053%=      5-min Rain = 0
KEN1 141935Z 27004KT 27/16 A3025 RMK A01 T02650163  RH  053%=      5-min Rain = 0
KEN1 141936Z 28005KT 27/16 A3025 RMK A01 T02650156  RH  051%=      5-min Rain = 0
KEN1 141937Z 28003KT 26/16 A3025 RMK A01 T02630155  RH  051%=      5-min Rain = 0
KEN1 141938Z 28003KT 26/15 A3025 RMK A01 T02620153  RH  051%=      5-min Rain = 0
KEN1 141939Z 29004KT 26/15 A3025 RMK A01 T02610153  RH  051%=      5-min Rain = 0
KEN1 141940Z 27005KT 26/16 A3025 RMK A01 T02630163  RH  054%=      5-min Rain = 0
KEN1 141941Z 28005KT 27/15 A3025 RMK A01 T02660154  RH  050%=      5-min Rain = 0
KEN1 141942Z 28003KT 27/15 A3025 RMK A01 T02650151  RH  049%=      5-min Rain = 0
KEN1 141943Z 26003KT 26/15 A3025 RMK A01 T02640154  RH  051%=      5-min Rain = 0
KEN1 141944Z 28007KT 27/16 A3025 RMK A01 T02650156  RH  051%=      5-min Rain = 0
KEN1 141945Z 28005KT 27/15 A3025 RMK A01 T02650153  RH  050%=      5-min Rain = 0
KEN1 141946Z 28004KT 27/15 A3025 RMK A01 T02650154  RH  050%=      5-min Rain = 0
KEN1 141947Z 28006KT 27/16 A3025 RMK A01 T02660156  RH  051%=      5-min Rain = 0
KEN1 141948Z 27003KT 27/15 A3025 RMK A01 T02670150  RH  049%=      5-min Rain = 0
KEN1 141949Z 29002KT 27/16 A3024 RMK A01 T02670157  RH  051%=      5-min Rain = 0
KEN1 141950Z 29003KT 27/16 A3024 RMK A01 T02690160  RH  051%=      5-min Rain = 0
KEN1 141951Z 27006KT 27/16 A3024 RMK A01 T02710164  RH  052%=      5-min Rain = 0
KEN1 141952Z 27007KT 27/16 A3024 RMK A01 T02720156  RH  049%=      5-min Rain = 0
KEN1 141953Z 26007KT 27/16 A3024 RMK A01 T02710157  RH  050%=      5-min Rain = 0
KEN1 141954Z 27005KT 27/16 A3024 RMK A01 T02720157  RH  049%=      5-min Rain = 0
KEN1 141955Z 26004KT 27/16 A3024 RMK A01 T02720155  RH  049%=      5-min Rain = 0
KEN1 141956Z 29002KT 27/16 A3024 RMK A01 T02720157  RH  049%=      5-min Rain = 0
KEN1 141957Z 31005KT 27/15 A3024 RMK A01 T02720154  RH  048%=      5-min Rain = 0
KEN1 141958Z 28003KT 27/15 A3024 RMK A01 T02700149  RH  047%=      5-min Rain = 0
KEN1 141959Z 27002KT 27/16 A3024 RMK A01 T02690155  RH  050%=      5-min Rain = 0
KEN1 142000Z 27004KT 27/16 A3024 RMK A01 T02710161  RH  051%=      5-min Rain = 0
KEN1 142001Z 25004G9KT 27/16 A3024 RMK A01 T02730155  RH  048%=      5-min Rain = 0
KEN1 142002Z 23007KT 28/16 A3024 RMK A01 T02750155  RH  048%=      5-min Rain = 0
KEN1 142003Z 23007KT 28/15 A3024 RMK A01 T02770145  RH  045%=      5-min Rain = 0
KEN1 142004Z 23007KT 28/14 A3024 RMK A01 T02760144  RH  044%=      5-min Rain = 0
KEN1 142005Z 22006KT 28/15 A3024 RMK A01 T02770145  RH  045%=      5-min Rain = 0
KEN1 142006Z 20003KT 28/14 A3024 RMK A01 T02750142  RH  044%=      5-min Rain = 0
KEN1 142007Z 24007KT 28/15 A3024 RMK A01 T02750149  RH  046%=      5-min Rain = 0
KEN1 142008Z 24008KT 28/15 A3024 RMK A01 T02760147  RH  045%=      5-min Rain = 0
KEN1 142009Z 26006KT 28/14 A3024 RMK A01 T02780138  RH  042%=      5-min Rain = 0
KEN1 142010Z 27005KT 28/13 A3024 RMK A01 T02780133  RH  041%=      5-min Rain = 0
KEN1 142011Z 27004KT 28/14 A3024 RMK A01 T02760137  RH  042%=      5-min Rain = 0
KEN1 142012Z 25006KT 28/14 A3024 RMK A01 T02760142  RH  044%=      5-min Rain = 0
KEN1 142013Z 24004KT 28/14 A3023 RMK A01 T02750140  RH  043%=      5-min Rain = 0
KEN1 142014Z 26003KT 27/14 A3023 RMK A01 T02740142  RH  044%=      5-min Rain = 0
KEN1 142015Z 28005KT 28/15 A3023 RMK A01 T02750145  RH  045%=      5-min Rain = 0
KEN1 142016Z 28007KT 28/15 A3023 RMK A01 T02750150  RH  046%=      5-min Rain = 0
KEN1 142017Z 28006KT 28/15 A3023 RMK A01 T02760150  RH  046%=      5-min Rain = 0
KEN1 142018Z 27005KT 28/15 A3023 RMK A01 T02770147  RH  045%=      5-min Rain = 0
KEN1 142019Z 28004KT 28/14 A3023 RMK A01 T02770143  RH  044%=      5-min Rain = 0
KEN1 142020Z 27002KT 28/14 A3023 RMK A01 T02760141  RH  043%=      5-min Rain = 0
KEN1 142021Z 25003KT 28/15 A3023 RMK A01 T02760146  RH  045%=      5-min Rain = 0
KEN1 142022Z 27003KT 28/15 A3023 RMK A01 T02780154  RH  047%=      5-min Rain = 0
KEN1 142023Z 27007KT 28/15 A3023 RMK A01 T02810152  RH  046%=      5-min Rain = 0
KEN1 142024Z 27006KT 28/15 A3023 RMK A01 T02800146  RH  044%=      5-min Rain = 0
KEN1 142025Z 25010KT 28/15 A3023 RMK A01 T02800151  RH  045%=      5-min Rain = 0
KEN1 142026Z 26009KT 28/15 A3023 RMK A01 T02790152  RH  046%=      5-min Rain = 0
KEN1 142027Z 25007KT 28/15 A3023 RMK A01 T02790153  RH  046%=      5-min Rain = 0
KEN1 142028Z 27007KT 28/16 A3023 RMK A01 T02810156  RH  047%=      5-min Rain = 0
KEN1 142029Z 26006KT 28/15 A3022 RMK A01 T02820150  RH  044%=      5-min Rain = 0
KEN1 142030Z 27005KT 28/15 A3022 RMK A01 T02820151  RH  045%=      5-min Rain = 0
KEN1 142031Z 28004KT 28/15 A3022 RMK A01 T02810149  RH  044%=      5-min Rain = 0
KEN1 142032Z 26003KT 28/15 A3022 RMK A01 T02810150  RH  045%=      5-min Rain = 0
KEN1 142033Z 26005KT 28/15 A3022 RMK A01 T02810148  RH  044%=      5-min Rain = 0
KEN1 142034Z 26009KT 28/15 A3022 RMK A01 T02810152  RH  045%=      5-min Rain = 0
KEN1 142035Z 26008KT 28/15 A3022 RMK A01 T02840154  RH  045%=      5-min Rain = 0
KEN1 142036Z 26006KT 29/15 A3022 RMK A01 T02850146  RH  043%=      5-min Rain = 0
KEN1 142037Z 29004KT 28/14 A3022 RMK A01 T02840144  RH  042%=      5-min Rain = 0
KEN1 142038Z 24005KT 28/15 A3022 RMK A01 T02820150  RH  044%=      5-min Rain = 0
KEN1 142039Z 24007KT 28/15 A3022 RMK A01 T02830149  RH  044%=      5-min Rain = 0
KEN1 142040Z 26006KT 29/15 A3022 RMK A01 T02850153  RH  045%=      5-min Rain = 0
KEN1 142041Z 29009KT 29/15 A3022 RMK A01 T02860152  RH  044%=      5-min Rain = 0
KEN1 142042Z 28007KT 29/15 A3022 RMK A01 T02850148  RH  043%=      5-min Rain = 0
KEN1 142043Z 30003KT 28/15 A3021 RMK A01 T02810146  RH  044%=      5-min Rain = 0
KEN1 142044Z 30005KT 28/15 A3021 RMK A01 T02810152  RH  046%=      5-min Rain = 0
KEN1 142045Z 28005KT 28/15 A3021 RMK A01 T02820148  RH  044%=      5-min Rain = 0
KEN1 142046Z 26005KT 28/15 A3021 RMK A01 T02820150  RH  044%=      5-min Rain = 0
KEN1 142047Z 25005KT 28/15 A3021 RMK A01 T02830154  RH  045%=      5-min Rain = 0
KEN1 142048Z 25010KT 29/16 A3021 RMK A01 T02860158  RH  046%=      5-min Rain = 0
KEN1 142049Z 25007KT 29/15 A3021 RMK A01 T02870149  RH  043%=      5-min Rain = 0
KEN1 142050Z 24007KT 28/15 A3021 RMK A01 T02840151  RH  044%=      5-min Rain = 0
KEN1 142051Z 25006KT 29/15 A3021 RMK A01 T02850153  RH  045%=      5-min Rain = 0
KEN1 142052Z 25008KT 29/16 A3021 RMK A01 T02870156  RH  045%=      5-min Rain = 0
KEN1 142053Z 26007KT 29/15 A3021 RMK A01 T02880153  RH  044%=      5-min Rain = 0
KEN1 142054Z 25008KT 29/16 A3021 RMK A01 T02880156  RH  045%=      5-min Rain = 0
KEN1 142055Z 24007KT 29/15 A3021 RMK A01 T02870153  RH  044%=      5-min Rain = 0
KEN1 142056Z 23006KT 29/15 A3021 RMK A01 T02850149  RH  043%=      5-min Rain = 0
KEN1 142057Z 23008KT 28/15 A3021 RMK A01 T02840153  RH  045%=      5-min Rain = 0
KEN1 142058Z 23005KT 28/15 A3021 RMK A01 T02840150  RH  044%=      5-min Rain = 0
KEN1 142059Z 25004KT 29/15 A3021 RMK A01 T02850153  RH  045%=      5-min Rain = 0
KEN1 142100Z 25006KT 29/15 A302 RMK A01 T02860152  RH  044%=      5-min Rain = 0
KEN1 142101Z 25006KT 29/16 A302 RMK A01 T02860157  RH  045%=      5-min Rain = 0
KEN1 142102Z 24005KT 29/16 A302 RMK A01 T02870155  RH  045%=      5-min Rain = 0
KEN1 142103Z 22005KT 29/15 A302 RMK A01 T02880154  RH  044%=      5-min Rain = 0
KEN1 142104Z 22003KT 29/15 A302 RMK A01 T02880152  RH  044%=      5-min Rain = 0
KEN1 142105Z 24003KT 29/16 A302 RMK A01 T02870156  RH  045%=      5-min Rain = 0
KEN1 142106Z 25004KT 29/15 A302 RMK A01 T02880151  RH  043%=      5-min Rain = 0
KEN1 142107Z 26007KT 29/16 A302 RMK A01 T02870155  RH  044%=      5-min Rain = 0
KEN1 142108Z 26007KT 29/16 A302 RMK A01 T02870155  RH  045%=      5-min Rain = 0
KEN1 142109Z 27007KT 29/16 A302 RMK A01 T02880156  RH  045%=      5-min Rain = 0
KEN1 142110Z 27006KT 29/16 A302 RMK A01 T02890157  RH  045%=      5-min Rain = 0
KEN1 142111Z 29005KT 29/16 A302 RMK A01 T02890157  RH  045%=      5-min Rain = 0
KEN1 142112Z 27004KT 29/16 A302 RMK A01 T02890157  RH  045%=      5-min Rain = 0
KEN1 142113Z 23005KT 29/16 A302 RMK A01 T02890159  RH  045%=      5-min Rain = 0
KEN1 142114Z 23005KT 29/16 A3019 RMK A01 T02910157  RH  044%=      5-min Rain = 0
KEN1 142115Z 24005KT 29/16 A3019 RMK A01 T02910163  RH  046%=      5-min Rain = 0
KEN1 142116Z 25004KT 29/17 A3019 RMK A01 T02920165  RH  046%=      5-min Rain = 0
KEN1 142117Z 28006KT 29/16 A3019 RMK A01 T02940163  RH  045%=      5-min Rain = 0
KEN1 142118Z 29007KT 29/16 A3019 RMK A01 T02930157  RH  044%=      5-min Rain = 0
KEN1 142119Z 29007KT 29/15 A3019 RMK A01 T02890152  RH  043%=      5-min Rain = 0
KEN1 142120Z 26004KT 29/16 A3019 RMK A01 T02870155  RH  045%=      5-min Rain = 0
KEN1 142121Z 24007KT 29/16 A3019 RMK A01 T02870159  RH  046%=      5-min Rain = 0
KEN1 142122Z 25007KT 29/16 A3019 RMK A01 T02890162  RH  046%=      5-min Rain = 0
KEN1 142123Z 27006KT 29/16 A3019 RMK A01 T02910160  RH  045%=      5-min Rain = 0
KEN1 142124Z 28005KT 29/16 A3019 RMK A01 T02910160  RH  045%=      5-min Rain = 0
KEN1 142125Z 29004KT 29/16 A3019 RMK A01 T02930163  RH  046%=      5-min Rain = 0
KEN1 142126Z 28007KT 29/16 A3019 RMK A01 T02930155  RH  043%=      5-min Rain = 0
KEN1 142127Z 27007KT 29/16 A3019 RMK A01 T02910159  RH  045%=      5-min Rain = 0
KEN1 142128Z 28006KT 29/16 A3019 RMK A01 T02910161  RH  045%=      5-min Rain = 0
KEN1 142129Z 28007KT 29/16 A3019 RMK A01 T02910163  RH  046%=      5-min Rain = 0
KEN1 142130Z 27006KT 29/16 A3019 RMK A01 T02920163  RH  046%=      5-min Rain = 0
KEN1 142131Z 26005KT 29/16 A3019 RMK A01 T02920160  RH  045%=      5-min Rain = 0
KEN1 142132Z 25005KT 29/16 A3019 RMK A01 T02910158  RH  045%=      5-min Rain = 0
KEN1 142133Z 24002KT 29/16 A3019 RMK A01 T02910162  RH  046%=      5-min Rain = 0
KEN1 142134Z 27005KT 29/16 A3018 RMK A01 T02910160  RH  045%=      5-min Rain = 0
KEN1 142135Z 24004KT 29/16 A3018 RMK A01 T02920161  RH  045%=      5-min Rain = 0
KEN1 142136Z 25002KT 29/16 A3018 RMK A01 T02920163  RH  046%=      5-min Rain = 0
KEN1 142137Z 29003KT 29/17 A3018 RMK A01 T02940169  RH  047%=      5-min Rain = 0
KEN1 142138Z 29004KT 30/16 A3018 RMK A01 T02970164  RH  045%=      5-min Rain = 0
KEN1 142139Z 24002KT 30/16 A3018 RMK A01 T02960161  RH  044%=      5-min Rain = 0
KEN1 142140Z 27002KT 30/16 A3018 RMK A01 T02950161  RH  044%=      5-min Rain = 0
KEN1 142141Z 28005KT 30/16 A3018 RMK A01 T02960164  RH  045%=      5-min Rain = 0
KEN1 142142Z 27006KT 30/16 A3018 RMK A01 T02960162  RH  044%=      5-min Rain = 0
KEN1 142143Z 27005KT 30/16 A3018 RMK A01 T02960160  RH  044%=      5-min Rain = 0
KEN1 142144Z 28007KT 30/16 A3018 RMK A01 T02950164  RH  045%=      5-min Rain = 0
KEN1 142145Z 28008KT 30/15 A3018 RMK A01 T02970154  RH  042%=      5-min Rain = 0
KEN1 142146Z 26008KT 30/16 A3018 RMK A01 T02960158  RH  043%=      5-min Rain = 0
KEN1 142147Z 25008KT 30/16 A3018 RMK A01 T02960158  RH  043%=      5-min Rain = 0
KEN1 142148Z 23008KT 30/16 A3018 RMK A01 T02960157  RH  043%=      5-min Rain = 0
KEN1 142149Z 22007KT 30/16 A3017 RMK A01 T02960155  RH  042%=      5-min Rain = 0
KEN1 142150Z 22006KT 30/15 A3017 RMK A01 T02960153  RH  042%=      5-min Rain = 0
KEN1 142151Z 21004KT 30/15 A3017 RMK A01 T02950154  RH  042%=      5-min Rain = 0
KEN1 142152Z 23005KT 30/16 A3017 RMK A01 T02950160  RH  044%=      5-min Rain = 0
KEN1 142153Z 23005KT 30/16 A3017 RMK A01 T02950158  RH  043%=      5-min Rain = 0
KEN1 142154Z 22004KT 30/16 A3017 RMK A01 T02950164  RH  045%=      5-min Rain = 0
KEN1 142155Z 20004KT 30/16 A3017 RMK A01 T02970158  RH  043%=      5-min Rain = 0
KEN1 142156Z 23002KT 30/16 A3017 RMK A01 T02970157  RH  043%=      5-min Rain = 0
KEN1 142157Z 30002KT 30/16 A3017 RMK A01 T02970159  RH  043%=      5-min Rain = 0
KEN1 142158Z 32004KT 30/16 A3017 RMK A01 T02970156  RH  042%=      5-min Rain = 0
KEN1 142159Z 32003KT 30/15 A3017 RMK A01 T02960153  RH  042%=      5-min Rain = 0
KEN1 142200Z 33004KT 30/16 A3017 RMK A01 T02950158  RH  044%=      5-min Rain = 0
KEN1 142201Z 30006KT 30/16 A3017 RMK A01 T02960163  RH  045%=      5-min Rain = 0
KEN1 142202Z 29006KT 30/16 A3017 RMK A01 T02970158  RH  043%=      5-min Rain = 0
KEN1 142203Z 29006KT 30/16 A3017 RMK A01 T02970161  RH  044%=      5-min Rain = 0
KEN1 142204Z 29004KT 30/16 A3017 RMK A01 T02970161  RH  044%=      5-min Rain = 0
KEN1 142205Z 29002KT 30/16 A3017 RMK A01 T02970157  RH  043%=      5-min Rain = 0
KEN1 142206Z 29002KT 30/16 A3017 RMK A01 T02970155  RH  042%=      5-min Rain = 0
KEN1 142207Z 28004KT 30/16 A3017 RMK A01 T02970160  RH  043%=      5-min Rain = 0
KEN1 142208Z 23002KT 30/16 A3017 RMK A01 T02990157  RH  042%=      5-min Rain = 0
KEN1 142209Z 20000KT 30/16 A3017 RMK A01 T03000156  RH  042%=      5-min Rain = 0
KEN1 142210Z 19002KT 30/16 A3016 RMK A01 T03010158  RH  042%=      5-min Rain = 0
KEN1 142211Z 18005KT 30/16 A3016 RMK A01 T03020159  RH  042%=      5-min Rain = 0
KEN1 142212Z 17003KT 30/16 A3016 RMK A01 T03020156  RH  041%=      5-min Rain = 0
KEN1 142213Z 17002KT 30/16 A3016 RMK A01 T03010157  RH  042%=      5-min Rain = 0
KEN1 142214Z 26002KT 30/16 A3016 RMK A01 T03010160  RH  043%=      5-min Rain = 0
KEN1 142215Z 27003KT 30/16 A3016 RMK A01 T03030163  RH  043%=      5-min Rain = 0
KEN1 142216Z 28005KT 30/16 A3016 RMK A01 T03040161  RH  042%=      5-min Rain = 0
KEN1 142217Z 27006KT 30/16 A3016 RMK A01 T03040160  RH  042%=      5-min Rain = 0
KEN1 142218Z 27005KT 30/16 A3016 RMK A01 T03020156  RH  041%=      5-min Rain = 0
KEN1 142219Z 30003KT 30/16 A3016 RMK A01 T02990155  RH  041%=      5-min Rain = 0
KEN1 142220Z 25002KT 30/16 A3016 RMK A01 T02980161  RH  043%=      5-min Rain = 0
KEN1 142221Z 18003KT 30/17 A3016 RMK A01 T03000165  RH  044%=      5-min Rain = 0
KEN1 142222Z 17003KT 30/16 A3016 RMK A01 T03040159  RH  042%=      5-min Rain = 0
KEN1 142223Z 19002KT 30/16 A3016 RMK A01 T03040156  RH  041%=      5-min Rain = 0
KEN1 142224Z 19003KT 30/16 A3016 RMK A01 T03040159  RH  042%=      5-min Rain = 0
KEN1 142225Z 22002KT 31/17 A3016 RMK A01 T03050165  RH  043%=      5-min Rain = 0
KEN1 142226Z 23002KT 31/16 A3016 RMK A01 T03070163  RH  042%=      5-min Rain = 0
KEN1 142227Z 21006KT 31/16 A3016 RMK A01 T03080164  RH  042%=      5-min Rain = 0
KEN1 142228Z 19006KT 31/16 A3016 RMK A01 T03080160  RH  041%=      5-min Rain = 0
KEN1 142229Z 19004KT 31/16 A3016 RMK A01 T03050155  RH  040%=      5-min Rain = 0
KEN1 142230Z 18003KT 30/16 A3016 RMK A01 T03030156  RH  041%=      5-min Rain = 0
KEN1 142231Z 20002KT 30/16 A3016 RMK A01 T03020159  RH  042%=      5-min Rain = 0
KEN1 142232Z 25003KT 30/16 A3016 RMK A01 T03040160  RH  042%=      5-min Rain = 0
KEN1 142233Z 26002KT 30/16 A3016 RMK A01 T03040156  RH  041%=      5-min Rain = 0
KEN1 142234Z 22003KT 31/16 A3016 RMK A01 T03050158  RH  041%=      5-min Rain = 0
KEN1 142235Z 19005KT 31/16 A3015 RMK A01 T03050157  RH  041%=      5-min Rain = 0
KEN1 142236Z 17003KT 30/15 A3015 RMK A01 T03040154  RH  040%=      5-min Rain = 0
KEN1 142237Z 15003KT 30/15 A3015 RMK A01 T03020153  RH  041%=      5-min Rain = 0
KEN1 142238Z 12002KT 30/16 A3015 RMK A01 T03010155  RH  041%=      5-min Rain = 0
KEN1 142239Z 14002KT 30/16 A3015 RMK A01 T03010156  RH  041%=      5-min Rain = 0
KEN1 142240Z 23003KT 30/16 A3015 RMK A01 T03020159  RH  042%=      5-min Rain = 0
KEN1 142241Z 25004KT 30/16 A3015 RMK A01 T03040159  RH  042%=      5-min Rain = 0
KEN1 142242Z 26003KT 31/16 A3015 RMK A01 T03050161  RH  042%=      5-min Rain = 0
KEN1 142243Z 23004KT 30/16 A3015 RMK A01 T03040160  RH  042%=      5-min Rain = 0
KEN1 142244Z 23004KT 31/16 A3015 RMK A01 T03060161  RH  042%=      5-min Rain = 0
KEN1 142245Z 23003KT 31/16 A3015 RMK A01 T03060160  RH  041%=      5-min Rain = 0
KEN1 142246Z 26002KT 31/16 A3015 RMK A01 T03060156  RH  040%=      5-min Rain = 0
KEN1 142247Z 28002KT 31/16 A3015 RMK A01 T03070159  RH  041%=      5-min Rain = 0
KEN1 142248Z 25002KT 31/16 A3015 RMK A01 T03070159  RH  041%=      5-min Rain = 0
KEN1 142249Z 27002KT 31/16 A3015 RMK A01 T03080157  RH  040%=      5-min Rain = 0
KEN1 142250Z 26003KT 31/16 A3015 RMK A01 T03080156  RH  040%=      5-min Rain = 0
KEN1 142251Z 20004KT 31/16 A3015 RMK A01 T03070159  RH  041%=      5-min Rain = 0
KEN1 142252Z 18004KT 31/16 A3015 RMK A01 T03060158  RH  041%=      5-min Rain = 0
KEN1 142253Z 18005KT 31/16 A3015 RMK A01 T03060162  RH  042%=      5-min Rain = 0
KEN1 142254Z 19004KT 31/16 A3015 RMK A01 T03060159  RH  041%=      5-min Rain = 0
KEN1 142255Z 18004KT 31/16 A3015 RMK A01 T03060159  RH  041%=      5-min Rain = 0
KEN1 142256Z 18003KT 31/16 A3015 RMK A01 T03050158  RH  041%=      5-min Rain = 0
KEN1 142257Z 16003KT 31/16 A3015 RMK A01 T03050160  RH  042%=      5-min Rain = 0
KEN1 142258Z 15001KT 31/16 A3015 RMK A01 T03050156  RH  040%=      5-min Rain = 0
KEN1 142259Z 13003KT 31/16 A3015 RMK A01 T03050158  RH  041%=      5-min Rain = 0
KEN1 142300Z 12003KT 31/16 A3015 RMK A01 T03060156  RH  040%=      5-min Rain = 0
KEN1 142301Z 13003KT 31/16 A3015 RMK A01 T03060157  RH  040%=      5-min Rain = 0
KEN1 142302Z 17005KT 31/16 A3015 RMK A01 T03060158  RH  041%=      5-min Rain = 0
KEN1 142303Z 17002KT 31/16 A3015 RMK A01 T03060156  RH  040%=      5-min Rain = 0
KEN1 142304Z 16000KT 31/16 A3015 RMK A01 T03060159  RH  041%=      5-min Rain = 0
KEN1 142305Z 19002KT 31/16 A3015 RMK A01 T03070160  RH  041%=      5-min Rain = 0
KEN1 142306Z 17003KT 31/16 A3015 RMK A01 T03080157  RH  040%=      5-min Rain = 0
KEN1 142307Z 15005KT 31/16 A3015 RMK A01 T03090162  RH  041%=      5-min Rain = 0
KEN1 142308Z 15003KT 31/16 A3015 RMK A01 T03090156  RH  040%=      5-min Rain = 0
KEN1 142309Z 18003KT 31/16 A3015 RMK A01 T03080157  RH  040%=      5-min Rain = 0
KEN1 142310Z 20004KT 31/16 A3015 RMK A01 T03080162  RH  041%=      5-min Rain = 0
KEN1 142311Z 20004KT 31/16 A3015 RMK A01 T03080161  RH  041%=      5-min Rain = 0
KEN1 142312Z 17004KT 31/16 A3015 RMK A01 T03080160  RH  041%=      5-min Rain = 0
KEN1 142313Z 18006KT 31/16 A3015 RMK A01 T03090158  RH  040%=      5-min Rain = 0
KEN1 142314Z 18008KT 31/16 A3015 RMK A01 T03090163  RH  041%=      5-min Rain = 0
KEN1 142315Z 17005KT 31/16 A3015 RMK A01 T03090156  RH  040%=      5-min Rain = 0
KEN1 142316Z 19003KT 31/16 A3015 RMK A01 T03070156  RH  040%=      5-min Rain = 0
KEN1 142317Z 20001KT 31/16 A3015 RMK A01 T03070157  RH  040%=      5-min Rain = 0
KEN1 142318Z 29001KT 31/15 A3015 RMK A01 T03080153  RH  039%=      5-min Rain = 0
KEN1 142319Z 28001KT 31/15 A3015 RMK A01 T03100154  RH  039%=      5-min Rain = 0
KEN1 142320Z 25002KT 31/15 A3014 RMK A01 T03100153  RH  039%=      5-min Rain = 0
KEN1 142321Z 25002KT 31/16 A3014 RMK A01 T03100156  RH  039%=      5-min Rain = 0
KEN1 142322Z 25002KT 31/16 A3014 RMK A01 T03110155  RH  039%=      5-min Rain = 0
KEN1 142323Z 25002KT 31/16 A3014 RMK A01 T03110155  RH  039%=      5-min Rain = 0
KEN1 142324Z 20002KT 31/16 A3014 RMK A01 T03100158  RH  040%=      5-min Rain = 0
KEN1 142325Z 16004KT 31/15 A3014 RMK A01 T03110154  RH  039%=      5-min Rain = 0
KEN1 142326Z 17001KT 31/16 A3014 RMK A01 T03110157  RH  039%=      5-min Rain = 0
KEN1 142327Z 17003KT 31/16 A3014 RMK A01 T03120159  RH  040%=      5-min Rain = 0
KEN1 142328Z 19004KT 31/16 A3014 RMK A01 T03130160  RH  040%=      5-min Rain = 0
KEN1 142329Z 22005KT 31/16 A3014 RMK A01 T03130162  RH  040%=      5-min Rain = 0
KEN1 142330Z 22007KT 31/16 A3014 RMK A01 T03130162  RH  040%=      5-min Rain = 0
KEN1 142331Z 23005KT 31/16 A3014 RMK A01 T03130158  RH  039%=      5-min Rain = 0
KEN1 142332Z 20003KT 31/16 A3014 RMK A01 T03110160  RH  040%=      5-min Rain = 0
KEN1 142333Z 17004KT 31/16 A3014 RMK A01 T03110157  RH  039%=      5-min Rain = 0
KEN1 142334Z 17003KT 31/16 A3014 RMK A01 T03110158  RH  040%=      5-min Rain = 0
KEN1 142335Z 16004KT 31/16 A3014 RMK A01 T03110159  RH  040%=      5-min Rain = 0
KEN1 142336Z 17003KT 31/16 A3014 RMK A01 T03110156  RH  039%=      5-min Rain = 0
KEN1 142337Z 15001KT 31/16 A3014 RMK A01 T03110159  RH  040%=      5-min Rain = 0
KEN1 142338Z 16001KT 31/16 A3014 RMK A01 T03110156  RH  039%=      5-min Rain = 0
KEN1 142339Z 12001KT 31/16 A3014 RMK A01 T03110158  RH  040%=      5-min Rain = 0
KEN1 142340Z 15003KT 31/16 A3014 RMK A01 T03120157  RH  039%=      5-min Rain = 0
KEN1 142341Z 17003KT 31/16 A3014 RMK A01 T03120159  RH  040%=      5-min Rain = 0
KEN1 142342Z 16003KT 31/16 A3014 RMK A01 T03120163  RH  041%=      5-min Rain = 0
KEN1 142343Z 17004KT 31/16 A3014 RMK A01 T03130160  RH  040%=      5-min Rain = 0
KEN1 142344Z 17002KT 31/16 A3014 RMK A01 T03130156  RH  039%=      5-min Rain = 0
KEN1 142345Z 16002KT 31/16 A3014 RMK A01 T03120158  RH  039%=      5-min Rain = 0
KEN1 142346Z 18004KT 31/16 A3014 RMK A01 T03120158  RH  040%=      5-min Rain = 0
KEN1 142347Z 21002KT 31/16 A3014 RMK A01 T03120158  RH  040%=      5-min Rain = 0
KEN1 142348Z 18003KT 31/16 A3014 RMK A01 T03120159  RH  040%=      5-min Rain = 0
KEN1 142349Z 15005KT 31/16 A3014 RMK A01 T03130161  RH  040%=      5-min Rain = 0
KEN1 142350Z 20006KT 31/16 A3014 RMK A01 T03130164  RH  041%=      5-min Rain = 0
KEN1 142351Z 19006KT 32/16 A3014 RMK A01 T03150162  RH  040%=      5-min Rain = 0
KEN1 142352Z 17005KT 32/16 A3014 RMK A01 T03150158  RH  039%=      5-min Rain = 0
KEN1 142353Z 18005KT 31/16 A3014 RMK A01 T03130156  RH  039%=      5-min Rain = 0
KEN1 142354Z 17003KT 31/16 A3014 RMK A01 T03120155  RH  039%=      5-min Rain = 0
KEN1 142355Z 17003KT 31/16 A3014 RMK A01 T03120156  RH  039%=      5-min Rain = 0
KEN1 142356Z 18004KT 31/15 A3014 RMK A01 T03120154  RH  038%=      5-min Rain = 0
KEN1 142357Z 18005KT 31/15 A3014 RMK A01 T03120153  RH  038%=      5-min Rain = 0
KEN1 142358Z 18006KT 31/16 A3014 RMK A01 T03120159  RH  040%=      5-min Rain = 0
KEN1 142359Z 19006KT 31/16 A3014 RMK A01 T03130160  RH  040%=      5-min Rain = 0
KEN1 150000Z 20007KT 31/16 A3014 RMK A01 T03130160  RH  040%=      5-min Rain = 0
KEN1 150001Z 21008KT 31/16 A3014 RMK A01 T03140159  RH  039%=      5-min Rain = 0
KEN1 150002Z 20006KT 31/16 A3014 RMK A01 T03120159  RH  040%=      5-min Rain = 0
KEN1 150003Z 20006KT 31/16 A3014 RMK A01 T03120157  RH  039%=      5-min Rain = 0
KEN1 150004Z 20005KT 31/16 A3014 RMK A01 T03110156  RH  039%=      5-min Rain = 0
KEN1 150005Z 21004KT 31/15 A3014 RMK A01 T03100154  RH  039%=      5-min Rain = 0
KEN1 150006Z 24004KT 31/16 A3014 RMK A01 T03100160  RH  041%=      5-min Rain = 0
KEN1 150007Z 24003KT 31/16 A3014 RMK A01 T03100155  RH  039%=      5-min Rain = 0
KEN1 150008Z 24003KT 31/16 A3014 RMK A01 T03090157  RH  040%=      5-min Rain = 0
KEN1 150009Z 23005KT 31/16 A3014 RMK A01 T03090158  RH  040%=      5-min Rain = 0
KEN1 150010Z 24004KT 31/16 A3014 RMK A01 T03080157  RH  040%=      5-min Rain = 0
KEN1 150011Z 22002KT 31/16 A3014 RMK A01 T03070155  RH  040%=      5-min Rain = 0
KEN1 150012Z 25002KT 31/16 A3014 RMK A01 T03060155  RH  040%=      5-min Rain = 0
KEN1 150013Z 22002KT 31/16 A3014 RMK A01 T03060155  RH  040%=      5-min Rain = 0
KEN1 150014Z 21002KT 31/16 A3014 RMK A01 T03060160  RH  041%=      5-min Rain = 0
KEN1 150015Z 21003KT 31/17 A3014 RMK A01 T03060165  RH  043%=      5-min Rain = 0
KEN1 150016Z 20004KT 31/16 A3014 RMK A01 T03050163  RH  042%=      5-min Rain = 0
KEN1 150017Z 21005KT 31/16 A3014 RMK A01 T03050160  RH  042%=      5-min Rain = 0
KEN1 150018Z 21005KT 31/16 A3014 RMK A01 T03050156  RH  040%=      5-min Rain = 0
KEN1 150019Z 21006KT 31/16 A3014 RMK A01 T03050159  RH  041%=      5-min Rain = 0
KEN1 150020Z 20005KT 31/16 A3014 RMK A01 T03050160  RH  042%=      5-min Rain = 0
KEN1 150021Z 19004KT 30/16 A3014 RMK A01 T03040155  RH  040%=      5-min Rain = 0
KEN1 150022Z 20003KT 30/16 A3014 RMK A01 T03040160  RH  042%=      5-min Rain = 0
KEN1 150023Z 19003KT 30/16 A3014 RMK A01 T03040162  RH  042%=      5-min Rain = 0
KEN1 150024Z 21003KT 30/17 A3014 RMK A01 T03040168  RH  044%=      5-min Rain = 0
KEN1 150025Z 20004KT 30/16 A3014 RMK A01 T03040163  RH  043%=      5-min Rain = 0
KEN1 150026Z 20004KT 30/16 A3014 RMK A01 T03030158  RH  042%=      5-min Rain = 0
KEN1 150027Z 21003KT 30/16 A3014 RMK A01 T03020157  RH  041%=      5-min Rain = 0
KEN1 150028Z 22003KT 30/16 A3015 RMK A01 T03020158  RH  042%=      5-min Rain = 0
KEN1 150029Z 21004KT 30/16 A3015 RMK A01 T03010157  RH  042%=      5-min Rain = 0
KEN1 150030Z 22003KT 30/16 A3015 RMK A01 T03010163  RH  043%=      5-min Rain = 0
KEN1 150031Z 22002KT 30/16 A3015 RMK A01 T03000161  RH  043%=      5-min Rain = 0
KEN1 150032Z 21003KT 30/16 A3015 RMK A01 T03000164  RH  044%=      5-min Rain = 0
KEN1 150033Z 22002KT 30/17 A3015 RMK A01 T02990168  RH  045%=      5-min Rain = 0
KEN1 150034Z 21003KT 30/17 A3015 RMK A01 T02980167  RH  045%=      5-min Rain = 0
KEN1 150035Z 21003KT 30/17 A3015 RMK A01 T02980169  RH  046%=      5-min Rain = 0
KEN1 150036Z 20003KT 30/17 A3015 RMK A01 T02970171  RH  047%=      5-min Rain = 0
KEN1 150037Z 18003KT 30/17 A3015 RMK A01 T02970173  RH  047%=      5-min Rain = 0
KEN1 150038Z 19003KT 30/17 A3015 RMK A01 T02960171  RH  047%=      5-min Rain = 0
KEN1 150039Z 20004KT 30/16 A3015 RMK A01 T02960158  RH  043%=      5-min Rain = 0
KEN1 150040Z 18003KT 30/16 A3015 RMK A01 T02960164  RH  045%=      5-min Rain = 0
KEN1 150041Z 18003KT 30/17 A3015 RMK A01 T02960166  RH  046%=      5-min Rain = 0
KEN1 150042Z 18003KT 30/17 A3015 RMK A01 T02960169  RH  046%=      5-min Rain = 0
KEN1 150043Z 18003KT 30/17 A3015 RMK A01 T02960173  RH  048%=      5-min Rain = 0
KEN1 150044Z 18003KT 30/18 A3015 RMK A01 T02950178  RH  049%=      5-min Rain = 0
KEN1 150045Z 18003KT 30/18 A3015 RMK A01 T02950176  RH  049%=      5-min Rain = 0
KEN1 150046Z 19002KT 29/18 A3015 RMK A01 T02940177  RH  049%=      5-min Rain = 0
KEN1 150047Z 19002KT 29/18 A3015 RMK A01 T02940180  RH  050%=      5-min Rain = 0
KEN1 150048Z 20002KT 29/18 A3015 RMK A01 T02940179  RH  050%=      5-min Rain = 0
KEN1 150049Z 20002KT 29/18 A3015 RMK A01 T02930179  RH  050%=      5-min Rain = 0
KEN1 150050Z 20002KT 29/18 A3015 RMK A01 T02930182  RH  051%=      5-min Rain = 0
KEN1 150051Z 20002KT 29/18 A3015 RMK A01 T02930183  RH  052%=      5-min Rain = 0
KEN1 150052Z 20002KT 29/18 A3015 RMK A01 T02930179  RH  050%=      5-min Rain = 0
KEN1 150053Z 19002KT 29/18 A3015 RMK A01 T02930175  RH  049%=      5-min Rain = 0
KEN1 150054Z 20002KT 29/18 A3015 RMK A01 T02930176  RH  049%=      5-min Rain = 0
KEN1 150055Z 21001KT 29/18 A3015 RMK A01 T02930177  RH  050%=      5-min Rain = 0
KEN1 150056Z 21002KT 29/17 A3015 RMK A01 T02930171  RH  048%=      5-min Rain = 0
KEN1 150057Z 21002KT 29/17 A3015 RMK A01 T02930171  RH  048%=      5-min Rain = 0
KEN1 150058Z 21001KT 29/18 A3015 RMK A01 T02930182  RH  051%=      5-min Rain = 0
KEN1 150059Z 21001KT 29/19 A3015 RMK A01 T02930187  RH  053%=      5-min Rain = 0
KEN1 150100Z 19001KT 29/19 A3015 RMK A01 T02930192  RH  055%=      5-min Rain = 0
KEN1 150101Z 19001KT 29/19 A3015 RMK A01 T02910186  RH  053%=      5-min Rain = 0
KEN1 150102Z 19001KT 29/18 A3015 RMK A01 T02910183  RH  052%=      5-min Rain = 0
KEN1 150103Z 18001KT 29/18 A3015 RMK A01 T02900182  RH  052%=      5-min Rain = 0
KEN1 150104Z 16001KT 29/18 A3015 RMK A01 T02890184  RH  053%=      5-min Rain = 0
KEN1 150105Z 13001KT 29/19 A3015 RMK A01 T02880188  RH  055%=      5-min Rain = 0
KEN1 150106Z 13002KT 29/19 A3015 RMK A01 T02870187  RH  055%=      5-min Rain = 0
KEN1 150107Z 12002KT 29/19 A3015 RMK A01 T02860188  RH  055%=      5-min Rain = 0
KEN1 150108Z 10003KT 28/19 A3015 RMK A01 T02840193  RH  058%=      5-min Rain = 0
KEN1 150109Z 09006KT 28/19 A3015 RMK A01 T02800194  RH  059%=      5-min Rain = 0
KEN1 150110Z 10005KT 28/19 A3015 RMK A01 T02770191  RH  059%=      5-min Rain = 0
KEN1 150111Z 10004KT 28/19 A3015 RMK A01 T02750191  RH  060%=      5-min Rain = 0
KEN1 150112Z 10004KT 27/19 A3016 RMK A01 T02730192  RH  061%=      5-min Rain = 0
KEN1 150113Z 10004KT 27/19 A3016 RMK A01 T02730193  RH  062%=      5-min Rain = 0
KEN1 150114Z 11004KT 27/19 A3016 RMK A01 T02730192  RH  061%=      5-min Rain = 0
KEN1 150115Z 11005KT 27/19 A3016 RMK A01 T02720191  RH  061%=      5-min Rain = 0
KEN1 150116Z 11005KT 27/19 A3016 RMK A01 T02730190  RH  060%=      5-min Rain = 0
KEN1 150117Z 11005KT 27/19 A3016 RMK A01 T02740190  RH  060%=      5-min Rain = 0
KEN1 150118Z 12005KT 27/19 A3016 RMK A01 T02740193  RH  061%=      5-min Rain = 0
KEN1 150119Z 11005KT 27/19 A3016 RMK A01 T02740192  RH  061%=      5-min Rain = 0
KEN1 150120Z 11005KT 27/19 A3016 RMK A01 T02740192  RH  061%=      5-min Rain = 0
KEN1 150121Z 11005KT 27/19 A3016 RMK A01 T02730192  RH  061%=      5-min Rain = 0
KEN1 150122Z 11005KT 27/19 A3016 RMK A01 T02730192  RH  061%=      5-min Rain = 0
KEN1 150123Z 10004KT 27/19 A3016 RMK A01 T02720190  RH  061%=      5-min Rain = 0
KEN1 150124Z 11004KT 27/19 A3016 RMK A01 T02720190  RH  061%=      5-min Rain = 0
KEN1 150125Z 13004KT 27/19 A3016 RMK A01 T02720192  RH  062%=      5-min Rain = 0
KEN1 150126Z 12004KT 27/19 A3016 RMK A01 T02720194  RH  063%=      5-min Rain = 0
KEN1 150127Z 12004KT 27/19 A3016 RMK A01 T02710192  RH  062%=      5-min Rain = 0
KEN1 150128Z 12004KT 27/19 A3016 RMK A01 T02710189  RH  061%=      5-min Rain = 0
KEN1 150129Z 12004KT 27/19 A3016 RMK A01 T02720189  RH  061%=      5-min Rain = 0
KEN1 150130Z 12004KT 27/19 A3016 RMK A01 T02720191  RH  061%=      5-min Rain = 0
KEN1 150131Z 13005KT 27/19 A3016 RMK A01 T02720188  RH  060%=      5-min Rain = 0
KEN1 150132Z 12005KT 27/19 A3016 RMK A01 T02720188  RH  060%=      5-min Rain = 0
KEN1 150133Z 12005KT 27/19 A3016 RMK A01 T02720188  RH  060%=      5-min Rain = 0
KEN1 150134Z 12005KT 27/19 A3016 RMK A01 T02720188  RH  060%=      5-min Rain = 0
KEN1 150135Z 12005KT 27/19 A3016 RMK A01 T02710189  RH  061%=      5-min Rain = 0
KEN1 150136Z 10005KT 27/19 A3016 RMK A01 T02700189  RH  061%=      5-min Rain = 0
KEN1 150137Z 11005KT 27/19 A3016 RMK A01 T02690190  RH  062%=      5-min Rain = 0
KEN1 150138Z 12004KT 27/19 A3016 RMK A01 T02680191  RH  062%=      5-min Rain = 0
KEN1 150139Z 12005KT 27/19 A3016 RMK A01 T02680190  RH  062%=      5-min Rain = 0
KEN1 150140Z 12005KT 27/19 A3016 RMK A01 T02680191  RH  062%=      5-min Rain = 0
KEN1 150141Z 12005KT 27/19 A3016 RMK A01 T02680192  RH  063%=      5-min Rain = 0
KEN1 150142Z 13006KT 27/19 A3016 RMK A01 T02670187  RH  062%=      5-min Rain = 0
KEN1 150143Z 13005KT 27/19 A3016 RMK A01 T02680185  RH  061%=      5-min Rain = 0
KEN1 150144Z 13005KT 27/19 A3016 RMK A01 T02690187  RH  061%=      5-min Rain = 0
KEN1 150145Z 14005KT 27/19 A3016 RMK A01 T02690188  RH  061%=      5-min Rain = 0
KEN1 150146Z 13006KT 27/19 A3016 RMK A01 T02700188  RH  061%=      5-min Rain = 0
KEN1 150147Z 13006KT 27/19 A3016 RMK A01 T02700189  RH  061%=      5-min Rain = 0
KEN1 150148Z 14005KT 27/19 A3016 RMK A01 T02700187  RH  061%=      5-min Rain = 0
KEN1 150149Z 14006KT 27/18 A3016 RMK A01 T02700183  RH  059%=      5-min Rain = 0
KEN1 150150Z 14005KT 27/19 A3016 RMK A01 T02700189  RH  061%=      5-min Rain = 0
KEN1 150151Z 14006KT 27/19 A3016 RMK A01 T02690190  RH  062%=      5-min Rain = 0
KEN1 150152Z 13006KT 27/19 A3015 RMK A01 T02690187  RH  061%=      5-min Rain = 0
KEN1 150153Z 13006KT 27/19 A3015 RMK A01 T02680186  RH  060%=      5-min Rain = 0
KEN1 150154Z 13005KT 27/19 A3016 RMK A01 T02680186  RH  061%=      5-min Rain = 0
KEN1 150155Z 13005KT 27/19 A3016 RMK A01 T02680187  RH  061%=      5-min Rain = 0
KEN1 150156Z 13006KT 27/19 A3016 RMK A01 T02670186  RH  061%=      5-min Rain = 0
KEN1 150157Z 13007KT 27/18 A3016 RMK A01 T02670181  RH  059%=      5-min Rain = 0
KEN1 150158Z 14007KT 27/18 A3016 RMK A01 T02670181  RH  059%=      5-min Rain = 0
KEN1 150159Z 14007KT 27/18 A3016 RMK A01 T02670181  RH  059%=      5-min Rain = 0
KEN1 150200Z 14006KT 27/18 A3016 RMK A01 T02670180  RH  059%=      5-min Rain = 0
KEN1 150201Z 14006KT 27/18 A3016 RMK A01 T02670182  RH  060%=      5-min Rain = 0
KEN1 150202Z 14005KT 27/18 A3016 RMK A01 T02670183  RH  060%=      5-min Rain = 0
KEN1 150203Z 14006KT 27/18 A3016 RMK A01 T02660183  RH  060%=      5-min Rain = 0
KEN1 150204Z 14005KT 27/18 A3016 RMK A01 T02660183  RH  060%=      5-min Rain = 0
KEN1 150205Z 14005KT 27/18 A3016 RMK A01 T02650183  RH  061%=      5-min Rain = 0
KEN1 150206Z 14005KT 26/18 A3016 RMK A01 T02640184  RH  061%=      5-min Rain = 0
KEN1 150207Z 14005KT 26/19 A3016 RMK A01 T02630185  RH  062%=      5-min Rain = 0
KEN1 150208Z 14005KT 26/19 A3016 RMK A01 T02630185  RH  062%=      5-min Rain = 0
KEN1 150209Z 14005KT 26/19 A3016 RMK A01 T02620185  RH  063%=      5-min Rain = 0
KEN1 150210Z 14005KT 26/19 A3016 RMK A01 T02610187  RH  063%=      5-min Rain = 0
KEN1 150211Z 14005KT 26/19 A3016 RMK A01 T02610187  RH  064%=      5-min Rain = 0
KEN1 150212Z 14005KT 26/19 A3016 RMK A01 T02600187  RH  064%=      5-min Rain = 0
KEN1 150213Z 14005KT 26/19 A3016 RMK A01 T02600188  RH  065%=      5-min Rain = 0
KEN1 150214Z 14005KT 26/19 A3016 RMK A01 T02590188  RH  065%=      5-min Rain = 0
KEN1 150215Z 13006KT 26/19 A3016 RMK A01 T02590187  RH  065%=      5-min Rain = 0
KEN1 150216Z 13005KT 26/19 A3016 RMK A01 T02580188  RH  065%=      5-min Rain = 0
KEN1 150217Z 14005KT 26/19 A3016 RMK A01 T02580187  RH  065%=      5-min Rain = 0
KEN1 150218Z 14005KT 26/19 A3015 RMK A01 T02570188  RH  065%=      5-min Rain = 0
KEN1 150219Z 14006KT 26/19 A3015 RMK A01 T02570186  RH  065%=      5-min Rain = 0
KEN1 150220Z 14005KT 26/19 A3015 RMK A01 T02570186  RH  065%=      5-min Rain = 0
KEN1 150221Z 14005KT 26/19 A3015 RMK A01 T02570186  RH  065%=      5-min Rain = 0
KEN1 150222Z 14005KT 26/19 A3016 RMK A01 T02570186  RH  065%=      5-min Rain = 0
KEN1 150223Z 14005KT 26/19 A3016 RMK A01 T02570185  RH  064%=      5-min Rain = 0
KEN1 150224Z 14005KT 26/19 A3016 RMK A01 T02570186  RH  065%=      5-min Rain = 0
KEN1 150225Z 14006KT 26/19 A3016 RMK A01 T02570187  RH  065%=      5-min Rain = 0
KEN1 150226Z 14006KT 26/19 A3016 RMK A01 T02560186  RH  065%=      5-min Rain = 0
KEN1 150227Z 13006KT 26/19 A3015 RMK A01 T02560188  RH  066%=      5-min Rain = 0
KEN1 150228Z 14007KT 26/19 A3015 RMK A01 T02560186  RH  065%=      5-min Rain = 0
KEN1 150229Z 14008KT 26/18 A3015 RMK A01 T02550182  RH  064%=      5-min Rain = 0
KEN1 150230Z 14008KT 26/18 A3015 RMK A01 T02550179  RH  063%=      5-min Rain = 0
KEN1 150231Z 14008KT 26/18 A3015 RMK A01 T02550179  RH  063%=      5-min Rain = 0
KEN1 150232Z 14009KT 26/18 A3015 RMK A01 T02550178  RH  062%=      5-min Rain = 0
KEN1 150233Z 14008KT 26/18 A3015 RMK A01 T02560177  RH  062%=      5-min Rain = 0
KEN1 150234Z 14009KT 26/18 A3015 RMK A01 T02560177  RH  062%=      5-min Rain = 0
KEN1 150235Z 14008KT 26/18 A3015 RMK A01 T02560177  RH  062%=      5-min Rain = 0
KEN1 150236Z 14009KT 26/18 A3016 RMK A01 T02570176  RH  061%=      5-min Rain = 0
KEN1 150237Z 14008KT 26/18 A3016 RMK A01 T02570177  RH  061%=      5-min Rain = 0
KEN1 150238Z 14008KT 26/18 A3016 RMK A01 T02570177  RH  061%=      5-min Rain = 0
KEN1 150239Z 14008KT 26/18 A3016 RMK A01 T02560178  RH  062%=      5-min Rain = 0
KEN1 150240Z 14009KT 26/18 A3016 RMK A01 T02570177  RH  062%=      5-min Rain = 0
KEN1 150241Z 14008KT 26/18 A3016 RMK A01 T02560178  RH  062%=      5-min Rain = 0
KEN1 150242Z 14008KT 26/18 A3016 RMK A01 T02560178  RH  062%=      5-min Rain = 0
KEN1 150243Z 14008KT 26/18 A3016 RMK A01 T02560178  RH  062%=      5-min Rain = 0
KEN1 150244Z 14008KT 26/18 A3016 RMK A01 T02560179  RH  062%=      5-min Rain = 0
KEN1 150245Z 15008KT 26/18 A3016 RMK A01 T02550179  RH  062%=      5-min Rain = 0
KEN1 150246Z 15008KT 26/18 A3016 RMK A01 T02550178  RH  062%=      5-min Rain = 0
KEN1 150247Z 15008KT 26/18 A3016 RMK A01 T02550178  RH  062%=      5-min Rain = 0
KEN1 150248Z 15008KT 26/18 A3016 RMK A01 T02550177  RH  062%=      5-min Rain = 0
KEN1 150249Z 15008KT 26/18 A3016 RMK A01 T02550177  RH  062%=      5-min Rain = 0
KEN1 150250Z 15008KT 26/18 A3016 RMK A01 T02550177  RH  062%=      5-min Rain = 0
KEN1 150251Z 14008KT 26/18 A3016 RMK A01 T02550177  RH  062%=      5-min Rain = 0
KEN1 150252Z 14008KT 26/18 A3016 RMK A01 T02550176  RH  062%=      5-min Rain = 0
KEN1 150253Z 14008KT 26/18 A3016 RMK A01 T02550177  RH  062%=      5-min Rain = 0
KEN1 150254Z 13009KT 26/18 A3017 RMK A01 T02550176  RH  062%=      5-min Rain = 0
KEN1 150255Z 14008KT 26/18 A3017 RMK A01 T02550177  RH  062%=      5-min Rain = 0
KEN1 150256Z 14008KT 25/18 A3017 RMK A01 T02540176  RH  062%=      5-min Rain = 0
KEN1 150257Z 14008KT 25/18 A3017 RMK A01 T02540176  RH  062%=      5-min Rain = 0
KEN1 150258Z 14008KT 25/18 A3017 RMK A01 T02540176  RH  062%=      5-min Rain = 0
KEN1 150259Z 14008KT 25/18 A3017 RMK A01 T02540176  RH  062%=      5-min Rain = 0
KEN1 150300Z 13008KT 25/18 A3017 RMK A01 T02540176  RH  062%=      5-min Rain = 0
KEN1 150301Z 13008KT 25/18 A3017 RMK A01 T02540175  RH  062%=      5-min Rain = 0
KEN1 150302Z 13008KT 25/18 A3017 RMK A01 T02540175  RH  061%=      5-min Rain = 0
KEN1 150303Z 12008KT 25/18 A3017 RMK A01 T02540175  RH  061%=      5-min Rain = 0
KEN1 150304Z 12008KT 25/18 A3017 RMK A01 T02540176  RH  062%=      5-min Rain = 0
KEN1 150305Z 12008KT 25/18 A3017 RMK A01 T02540175  RH  062%=      5-min Rain = 0
KEN1 150306Z 12008KT 25/17 A3017 RMK A01 T02540173  RH  061%=      5-min Rain = 0
KEN1 150307Z 13008KT 25/17 A3017 RMK A01 T02540173  RH  061%=      5-min Rain = 0
KEN1 150308Z 13008KT 26/17 A3017 RMK A01 T02550172  RH  060%=      5-min Rain = 0
KEN1 150309Z 12008KT 26/17 A3017 RMK A01 T02550171  RH  060%=      5-min Rain = 0
KEN1 150310Z 12008KT 26/17 A3017 RMK A01 T02560170  RH  059%=      5-min Rain = 0
KEN1 150311Z 12007KT 26/17 A3018 RMK A01 T02560171  RH  059%=      5-min Rain = 0
KEN1 150312Z 12007KT 26/17 A3018 RMK A01 T02560170  RH  059%=      5-min Rain = 0
KEN1 150313Z 12006KT 26/17 A3018 RMK A01 T02550170  RH  059%=      5-min Rain = 0
KEN1 150314Z 11006KT 26/17 A3018 RMK A01 T02550171  RH  060%=      5-min Rain = 0
KEN1 150315Z 11005KT 26/17 A3018 RMK A01 T02550172  RH  060%=      5-min Rain = 0
KEN1 150316Z 11005KT 25/17 A3018 RMK A01 T02540172  RH  060%=      5-min Rain = 0
KEN1 150317Z 11005KT 25/17 A3018 RMK A01 T02530173  RH  061%=      5-min Rain = 0
KEN1 150318Z 11005KT 25/17 A3018 RMK A01 T02520173  RH  061%=      5-min Rain = 0
KEN1 150319Z 11005KT 25/17 A3018 RMK A01 T02520174  RH  062%=      5-min Rain = 0
KEN1 150320Z 11006KT 25/17 A3018 RMK A01 T02510174  RH  062%=      5-min Rain = 0
KEN1 150321Z 11005KT 25/17 A3018 RMK A01 T02510172  RH  062%=      5-min Rain = 0
KEN1 150322Z 11006KT 25/17 A3018 RMK A01 T02510172  RH  061%=      5-min Rain = 0
KEN1 150323Z 11006KT 25/17 A3018 RMK A01 T02510171  RH  061%=      5-min Rain = 0
KEN1 150324Z 11006KT 25/17 A3018 RMK A01 T02510171  RH  061%=      5-min Rain = 0
KEN1 150325Z 11006KT 25/17 A3018 RMK A01 T02520172  RH  061%=      5-min Rain = 0
KEN1 150326Z 12006KT 25/17 A3018 RMK A01 T02520170  RH  060%=      5-min Rain = 0
KEN1 150327Z 12006KT 25/17 A3018 RMK A01 T02520168  RH  059%=      5-min Rain = 0
KEN1 150328Z 12007KT 25/17 A3018 RMK A01 T02540168  RH  059%=      5-min Rain = 0
KEN1 150329Z 12006KT 25/17 A3018 RMK A01 T02540167  RH  058%=      5-min Rain = 0
KEN1 150330Z 12006KT 26/17 A3018 RMK A01 T02550167  RH  058%=      5-min Rain = 0
KEN1 150331Z 12006KT 26/17 A3018 RMK A01 T02550168  RH  059%=      5-min Rain = 0
KEN1 150332Z 12006KT 26/17 A3018 RMK A01 T02550169  RH  059%=      5-min Rain = 0
KEN1 150333Z 12006KT 25/17 A3018 RMK A01 T02540169  RH  059%=      5-min Rain = 0
KEN1 150334Z 12005KT 25/17 A3018 RMK A01 T02540170  RH  060%=      5-min Rain = 0
KEN1 150335Z 12005KT 25/17 A3018 RMK A01 T02530170  RH  060%=      5-min Rain = 0
KEN1 150336Z 12005KT 25/17 A3018 RMK A01 T02530170  RH  060%=      5-min Rain = 0
KEN1 150337Z 12005KT 25/17 A3018 RMK A01 T02530171  RH  060%=      5-min Rain = 0
KEN1 150338Z 12005KT 25/17 A3018 RMK A01 T02520171  RH  060%=      5-min Rain = 0
KEN1 150339Z 12005KT 25/17 A3018 RMK A01 T02520172  RH  061%=      5-min Rain = 0
KEN1 150340Z 12005KT 25/17 A3018 RMK A01 T02510171  RH  061%=      5-min Rain = 0
KEN1 150341Z 12005KT 25/17 A3018 RMK A01 T02510172  RH  061%=      5-min Rain = 0
KEN1 150342Z 12005KT 25/17 A3018 RMK A01 T02510172  RH  061%=      5-min Rain = 0
KEN1 150343Z 12005KT 25/17 A3018 RMK A01 T02500172  RH  062%=      5-min Rain = 0
KEN1 150344Z 11005KT 25/17 A3018 RMK A01 T02500173  RH  062%=      5-min Rain = 0
KEN1 150345Z 11005KT 25/17 A3018 RMK A01 T02490173  RH  063%=      5-min Rain = 0
KEN1 150346Z 11005KT 25/17 A3018 RMK A01 T02480174  RH  063%=      5-min Rain = 0
KEN1 150347Z 11005KT 25/18 A3018 RMK A01 T02480175  RH  064%=      5-min Rain = 0
KEN1 150348Z 11005KT 25/18 A3018 RMK A01 T02460175  RH  064%=      5-min Rain = 0
KEN1 150349Z 11005KT 25/18 A3018 RMK A01 T02460175  RH  065%=      5-min Rain = 0
KEN1 150350Z 11005KT 25/18 A3018 RMK A01 T02450176  RH  065%=      5-min Rain = 0
KEN1 150351Z 11005KT 24/18 A3018 RMK A01 T02440177  RH  066%=      5-min Rain = 0
KEN1 150352Z 12005KT 24/18 A3018 RMK A01 T02430177  RH  067%=      5-min Rain = 0
KEN1 150353Z 12005KT 24/18 A3018 RMK A01 T02420178  RH  067%=      5-min Rain = 0
KEN1 150354Z 12005KT 24/18 A3018 RMK A01 T02410178  RH  068%=      5-min Rain = 0
KEN1 150355Z 13005KT 24/18 A3018 RMK A01 T02410179  RH  068%=      5-min Rain = 0
KEN1 150356Z 14005KT 24/18 A3018 RMK A01 T02410180  RH  069%=      5-min Rain = 0
KEN1 150357Z 14005KT 24/18 A3018 RMK A01 T02420183  RH  069%=      5-min Rain = 0
KEN1 150358Z 14005KT 24/19 A3018 RMK A01 T02420185  RH  070%=      5-min Rain = 0
KEN1 150359Z 14006KT 24/19 A3018 RMK A01 T02420186  RH  070%=      5-min Rain = 0
KEN1 150400Z 14007KT 24/18 A3018 RMK A01 T02420182  RH  069%=      5-min Rain = 0
KEN1 150401Z 14008KT 24/18 A3018 RMK A01 T02430179  RH  067%=      5-min Rain = 0
KEN1 150402Z 14008KT 24/18 A3018 RMK A01 T02440175  RH  066%=      5-min Rain = 0
KEN1 150403Z 14008KT 25/18 A3018 RMK A01 T02450175  RH  065%=      5-min Rain = 0
KEN1 150404Z 15008KT 25/18 A3017 RMK A01 T02460177  RH  065%=      5-min Rain = 0
KEN1 150405Z 15008KT 25/18 A3017 RMK A01 T02460178  RH  066%=      5-min Rain = 0
KEN1 150406Z 15008KT 25/18 A3017 RMK A01 T02460175  RH  065%=      5-min Rain = 0
KEN1 150407Z 15008KT 25/17 A3017 RMK A01 T02460174  RH  064%=      5-min Rain = 0
KEN1 150408Z 15008KT 25/17 A3017 RMK A01 T02470173  RH  063%=      5-min Rain = 0
KEN1 150409Z 15008KT 25/17 A3017 RMK A01 T02480171  RH  062%=      5-min Rain = 0
KEN1 150410Z 15007KT 25/17 A3017 RMK A01 T02490172  RH  062%=      5-min Rain = 0
KEN1 150411Z 15007KT 25/17 A3017 RMK A01 T02490173  RH  063%=      5-min Rain = 0
KEN1 150412Z 15007KT 25/17 A3018 RMK A01 T02490173  RH  063%=      5-min Rain = 0
KEN1 150413Z 15007KT 25/17 A3018 RMK A01 T02490173  RH  063%=      5-min Rain = 0
KEN1 150414Z 15008KT 25/17 A3018 RMK A01 T02490173  RH  063%=      5-min Rain = 0
KEN1 150415Z 15008KT 25/17 A3018 RMK A01 T02490173  RH  063%=      5-min Rain = 0
KEN1 150416Z 15008KT 25/17 A3018 RMK A01 T02480173  RH  063%=      5-min Rain = 0
KEN1 150417Z 15008KT 25/17 A3018 RMK A01 T02480172  RH  063%=      5-min Rain = 0
KEN1 150418Z 15008KT 25/17 A3018 RMK A01 T02480172  RH  063%=      5-min Rain = 0
KEN1 150419Z 14008KT 25/17 A3017 RMK A01 T02480171  RH  062%=      5-min Rain = 0
KEN1 150420Z 14008KT 25/17 A3017 RMK A01 T02480170  RH  062%=      5-min Rain = 0
KEN1 150421Z 14007KT 25/17 A3018 RMK A01 T02490170  RH  062%=      5-min Rain = 0
KEN1 150422Z 14007KT 25/17 A3018 RMK A01 T02490170  RH  062%=      5-min Rain = 0
KEN1 150423Z 15007KT 25/17 A3018 RMK A01 T02490171  RH  062%=      5-min Rain = 0
KEN1 150424Z 15007KT 25/17 A3018 RMK A01 T02490171  RH  062%=      5-min Rain = 0
KEN1 150425Z 14007KT 25/17 A3018 RMK A01 T02490170  RH  062%=      5-min Rain = 0
KEN1 150426Z 14007KT 25/17 A3018 RMK A01 T02490170  RH  062%=      5-min Rain = 0
KEN1 150427Z 14007KT 25/17 A3018 RMK A01 T02480170  RH  062%=      5-min Rain = 0
KEN1 150428Z 14008KT 25/17 A3017 RMK A01 T02480170  RH  062%=      5-min Rain = 0
KEN1 150429Z 14007KT 25/17 A3017 RMK A01 T02480170  RH  062%=      5-min Rain = 0
KEN1 150430Z 15008KT 25/17 A3018 RMK A01 T02480169  RH  062%=      5-min Rain = 0
KEN1 150431Z 15007KT 25/17 A3018 RMK A01 T02480170  RH  062%=      5-min Rain = 0
KEN1 150432Z 14007KT 25/17 A3018 RMK A01 T02480171  RH  062%=      5-min Rain = 0
KEN1 150433Z 14007KT 25/17 A3018 RMK A01 T02470171  RH  063%=      5-min Rain = 0
KEN1 150434Z 14007KT 25/17 A3018 RMK A01 T02470171  RH  063%=      5-min Rain = 0
KEN1 150435Z 14007KT 25/17 A3018 RMK A01 T02460171  RH  063%=      5-min Rain = 0
KEN1 150436Z 14006KT 25/17 A3018 RMK A01 T02460171  RH  063%=      5-min Rain = 0
KEN1 150437Z 14006KT 25/17 A3018 RMK A01 T02460171  RH  063%=      5-min Rain = 0
KEN1 150438Z 13005KT 25/17 A3018 RMK A01 T02460170  RH  063%=      5-min Rain = 0
KEN1 150439Z 13006KT 25/17 A3018 RMK A01 T02460168  RH  062%=      5-min Rain = 0
KEN1 150440Z 12006KT 25/17 A3018 RMK A01 T02470167  RH  061%=      5-min Rain = 0
KEN1 150441Z 12005KT 25/17 A3018 RMK A01 T02480167  RH  061%=      5-min Rain = 0
KEN1 150442Z 12005KT 25/17 A3018 RMK A01 T02480167  RH  061%=      5-min Rain = 0
KEN1 150443Z 12006KT 25/17 A3018 RMK A01 T02480167  RH  061%=      5-min Rain = 0
KEN1 150444Z 12006KT 25/17 A3018 RMK A01 T02490166  RH  060%=      5-min Rain = 0
KEN1 150445Z 13006KT 25/17 A3018 RMK A01 T02490166  RH  060%=      5-min Rain = 0
KEN1 150446Z 13006KT 25/17 A3018 RMK A01 T02500165  RH  059%=      5-min Rain = 0
KEN1 150447Z 12006KT 25/17 A3018 RMK A01 T02510165  RH  059%=      5-min Rain = 0
KEN1 150448Z 12005KT 25/17 A3018 RMK A01 T02510165  RH  059%=      5-min Rain = 0
KEN1 150449Z 12005KT 25/17 A3018 RMK A01 T02520165  RH  059%=      5-min Rain = 0
KEN1 150450Z 12005KT 25/17 A3019 RMK A01 T02520165  RH  059%=      5-min Rain = 0
KEN1 150451Z 13005KT 25/16 A3019 RMK A01 T02520164  RH  058%=      5-min Rain = 0
KEN1 150452Z 13004KT 25/17 A3019 RMK A01 T02520165  RH  059%=      5-min Rain = 0
KEN1 150453Z 14003KT 25/17 A3019 RMK A01 T02520167  RH  059%=      5-min Rain = 0
KEN1 150454Z 19002KT 25/17 A3019 RMK A01 T02520166  RH  059%=      5-min Rain = 0
KEN1 150455Z 26006KT 25/17 A302 RMK A01 T02520167  RH  060%=      5-min Rain = 0
KEN1 150456Z 27008KT 25/17 A302 RMK A01 T02510173  RH  062%=      5-min Rain = 0
KEN1 150457Z 27008KT 25/18 A302 RMK A01 T02480175  RH  064%=      5-min Rain = 0
KEN1 150458Z 28009KT 25/17 A302 RMK A01 T02470174  RH  064%=      5-min Rain = 0
KEN1 150459Z 27013KT 25/17 A302 RMK A01 T02470167  RH  061%=      5-min Rain = 0

Page generated in 0.1507 seconds.